<?xml version="1.0" encoding="UTF-8" standalone="no" ?>
<gpx xmlns="http://www.topografix.com/GPX/1/1" xmlns:xsi="http://www.w3.org/2001/XMLSchema-instance" xsi:schemaLocation="http://www.topografix.com/GPX/1/1 http://www.topografix.com/GPX/1/1/gpx.xsd" version="1.1" creator="VisuGPX - https://www.visugpx.com">
  <metadata>
    <name>Titou-Ninou depuis la Cayolle</name>
    <desc><![CDATA[Départ parking Boulevard Louis Pierotti .
Après avoir dépassé la fontaine de Voire, même sentier rouge jusqu’au Col de la Selle. Puis, sentier bleu jusqu'au Plateau Ouest de l'homme mort. Sentier vert jusqu'à Titou-Ninou.
Retour en sens inverse par le vert, puis le bleu n°1. A la tête de l'Homme petit sentier non balisé en descente jusqu'au jaune, puis au marron N°2 jusqu'à la Fontaine de Voire. Retour par le même sentier rouge qu'à l'aller. ]]></desc>
  </metadata>
  <trk>
    <name><![CDATA[Titou-Ninou depuis la Cayolle_1]]></name>
    <trkseg>
      <trkpt lat="43.23119" lon="5.3954">
        <ele>76</ele>
        <time>2017-04-23T08:05:25Z</time>
      </trkpt>
      <trkpt lat="43.23103" lon="5.39509">
        <ele>77</ele>
        <time>2017-04-23T08:06:27Z</time>
      </trkpt>
      <trkpt lat="43.23098" lon="5.39499">
        <ele>75</ele>
        <time>2017-04-23T08:06:37Z</time>
      </trkpt>
      <trkpt lat="43.2309" lon="5.39486">
        <ele>75</ele>
        <time>2017-04-23T08:06:47Z</time>
      </trkpt>
      <trkpt lat="43.23085" lon="5.39474">
        <ele>75</ele>
        <time>2017-04-23T08:06:56Z</time>
      </trkpt>
      <trkpt lat="43.23078" lon="5.39465">
        <ele>75</ele>
        <time>2017-04-23T08:07:06Z</time>
      </trkpt>
      <trkpt lat="43.23069" lon="5.39456">
        <ele>75</ele>
        <time>2017-04-23T08:07:16Z</time>
      </trkpt>
      <trkpt lat="43.23063" lon="5.39448">
        <ele>75</ele>
        <time>2017-04-23T08:07:26Z</time>
      </trkpt>
      <trkpt lat="43.23062" lon="5.39442">
        <ele>75</ele>
        <time>2017-04-23T08:07:36Z</time>
      </trkpt>
      <trkpt lat="43.23061" lon="5.39437">
        <ele>77</ele>
        <time>2017-04-23T08:07:48Z</time>
      </trkpt>
      <trkpt lat="43.23062" lon="5.39436">
        <ele>81</ele>
        <time>2017-04-23T08:07:57Z</time>
      </trkpt>
      <trkpt lat="43.23058" lon="5.39428">
        <ele>84</ele>
        <time>2017-04-23T08:08:07Z</time>
      </trkpt>
      <trkpt lat="43.23053" lon="5.39419">
        <ele>86</ele>
        <time>2017-04-23T08:08:17Z</time>
      </trkpt>
      <trkpt lat="43.23048" lon="5.39408">
        <ele>86</ele>
        <time>2017-04-23T08:08:27Z</time>
      </trkpt>
      <trkpt lat="43.23042" lon="5.39398">
        <ele>90</ele>
        <time>2017-04-23T08:08:37Z</time>
      </trkpt>
      <trkpt lat="43.23038" lon="5.39388">
        <ele>92</ele>
        <time>2017-04-23T08:08:46Z</time>
      </trkpt>
      <trkpt lat="43.23032" lon="5.39377">
        <ele>93</ele>
        <time>2017-04-23T08:08:56Z</time>
      </trkpt>
      <trkpt lat="43.23027" lon="5.39367">
        <ele>95</ele>
        <time>2017-04-23T08:09:05Z</time>
      </trkpt>
      <trkpt lat="43.23021" lon="5.39355">
        <ele>96</ele>
        <time>2017-04-23T08:09:15Z</time>
      </trkpt>
      <trkpt lat="43.23015" lon="5.39342">
        <ele>96</ele>
        <time>2017-04-23T08:09:26Z</time>
      </trkpt>
      <trkpt lat="43.23009" lon="5.39331">
        <ele>96</ele>
        <time>2017-04-23T08:09:36Z</time>
      </trkpt>
      <trkpt lat="43.23002" lon="5.3932">
        <ele>92</ele>
        <time>2017-04-23T08:09:46Z</time>
      </trkpt>
      <trkpt lat="43.22995" lon="5.39312">
        <ele>91</ele>
        <time>2017-04-23T08:09:56Z</time>
      </trkpt>
      <trkpt lat="43.22987" lon="5.39301">
        <ele>87</ele>
        <time>2017-04-23T08:10:05Z</time>
      </trkpt>
      <trkpt lat="43.22977" lon="5.39292">
        <ele>85</ele>
        <time>2017-04-23T08:10:15Z</time>
      </trkpt>
      <trkpt lat="43.22969" lon="5.39283">
        <ele>85</ele>
        <time>2017-04-23T08:10:24Z</time>
      </trkpt>
      <trkpt lat="43.22961" lon="5.39274">
        <ele>85</ele>
        <time>2017-04-23T08:10:33Z</time>
      </trkpt>
      <trkpt lat="43.22954" lon="5.39264">
        <ele>86</ele>
        <time>2017-04-23T08:10:42Z</time>
      </trkpt>
      <trkpt lat="43.22948" lon="5.39252">
        <ele>86</ele>
        <time>2017-04-23T08:10:51Z</time>
      </trkpt>
      <trkpt lat="43.22942" lon="5.3924">
        <ele>86</ele>
        <time>2017-04-23T08:11:00Z</time>
      </trkpt>
      <trkpt lat="43.22934" lon="5.39229">
        <ele>87</ele>
        <time>2017-04-23T08:11:10Z</time>
      </trkpt>
      <trkpt lat="43.22926" lon="5.39218">
        <ele>93</ele>
        <time>2017-04-23T08:11:20Z</time>
      </trkpt>
      <trkpt lat="43.22918" lon="5.39207">
        <ele>93</ele>
        <time>2017-04-23T08:11:30Z</time>
      </trkpt>
      <trkpt lat="43.2291" lon="5.39196">
        <ele>90</ele>
        <time>2017-04-23T08:11:40Z</time>
      </trkpt>
      <trkpt lat="43.22903" lon="5.39185">
        <ele>90</ele>
        <time>2017-04-23T08:11:50Z</time>
      </trkpt>
      <trkpt lat="43.22895" lon="5.39176">
        <ele>90</ele>
        <time>2017-04-23T08:12:00Z</time>
      </trkpt>
      <trkpt lat="43.22886" lon="5.39167">
        <ele>90</ele>
        <time>2017-04-23T08:12:10Z</time>
      </trkpt>
      <trkpt lat="43.22876" lon="5.39161">
        <ele>90</ele>
        <time>2017-04-23T08:12:20Z</time>
      </trkpt>
      <trkpt lat="43.22867" lon="5.39156">
        <ele>90</ele>
        <time>2017-04-23T08:12:30Z</time>
      </trkpt>
      <trkpt lat="43.22857" lon="5.39152">
        <ele>90</ele>
        <time>2017-04-23T08:12:39Z</time>
      </trkpt>
      <trkpt lat="43.22847" lon="5.39149">
        <ele>89</ele>
        <time>2017-04-23T08:12:48Z</time>
      </trkpt>
      <trkpt lat="43.22839" lon="5.39144">
        <ele>89</ele>
        <time>2017-04-23T08:12:58Z</time>
      </trkpt>
      <trkpt lat="43.22827" lon="5.3914">
        <ele>89</ele>
        <time>2017-04-23T08:13:08Z</time>
      </trkpt>
      <trkpt lat="43.22819" lon="5.39137">
        <ele>89</ele>
        <time>2017-04-23T08:13:20Z</time>
      </trkpt>
      <trkpt lat="43.22806" lon="5.39133">
        <ele>89</ele>
        <time>2017-04-23T08:13:29Z</time>
      </trkpt>
      <trkpt lat="43.22795" lon="5.3913">
        <ele>89</ele>
        <time>2017-04-23T08:13:38Z</time>
      </trkpt>
      <trkpt lat="43.22784" lon="5.39124">
        <ele>89</ele>
        <time>2017-04-23T08:13:49Z</time>
      </trkpt>
      <trkpt lat="43.22773" lon="5.39118">
        <ele>89</ele>
        <time>2017-04-23T08:13:59Z</time>
      </trkpt>
      <trkpt lat="43.22764" lon="5.39109">
        <ele>89</ele>
        <time>2017-04-23T08:14:09Z</time>
      </trkpt>
      <trkpt lat="43.22756" lon="5.391">
        <ele>89</ele>
        <time>2017-04-23T08:14:19Z</time>
      </trkpt>
      <trkpt lat="43.22747" lon="5.39092">
        <ele>89</ele>
        <time>2017-04-23T08:14:29Z</time>
      </trkpt>
      <trkpt lat="43.22739" lon="5.39084">
        <ele>92</ele>
        <time>2017-04-23T08:14:39Z</time>
      </trkpt>
      <trkpt lat="43.22735" lon="5.39073">
        <ele>97</ele>
        <time>2017-04-23T08:14:48Z</time>
      </trkpt>
      <trkpt lat="43.22731" lon="5.3906">
        <ele>97</ele>
        <time>2017-04-23T08:14:58Z</time>
      </trkpt>
      <trkpt lat="43.22724" lon="5.3905">
        <ele>98</ele>
        <time>2017-04-23T08:15:08Z</time>
      </trkpt>
      <trkpt lat="43.22717" lon="5.39043">
        <ele>99</ele>
        <time>2017-04-23T08:15:17Z</time>
      </trkpt>
      <trkpt lat="43.22709" lon="5.3904">
        <ele>101</ele>
        <time>2017-04-23T08:15:27Z</time>
      </trkpt>
      <trkpt lat="43.22704" lon="5.39039">
        <ele>104</ele>
        <time>2017-04-23T08:15:36Z</time>
      </trkpt>
      <trkpt lat="43.22698" lon="5.39042">
        <ele>105</ele>
        <time>2017-04-23T08:15:45Z</time>
      </trkpt>
      <trkpt lat="43.22691" lon="5.39046">
        <ele>111</ele>
        <time>2017-04-23T08:15:55Z</time>
      </trkpt>
      <trkpt lat="43.22682" lon="5.39048">
        <ele>116</ele>
        <time>2017-04-23T08:16:05Z</time>
      </trkpt>
      <trkpt lat="43.22675" lon="5.39051">
        <ele>117</ele>
        <time>2017-04-23T08:16:14Z</time>
      </trkpt>
      <trkpt lat="43.22667" lon="5.39053">
        <ele>117</ele>
        <time>2017-04-23T08:16:26Z</time>
      </trkpt>
      <trkpt lat="43.22657" lon="5.39053">
        <ele>117</ele>
        <time>2017-04-23T08:16:36Z</time>
      </trkpt>
      <trkpt lat="43.22647" lon="5.39055">
        <ele>122</ele>
        <time>2017-04-23T08:16:46Z</time>
      </trkpt>
      <trkpt lat="43.22639" lon="5.39055">
        <ele>123</ele>
        <time>2017-04-23T08:16:55Z</time>
      </trkpt>
      <trkpt lat="43.2263" lon="5.39056">
        <ele>123</ele>
        <time>2017-04-23T08:17:05Z</time>
      </trkpt>
      <trkpt lat="43.2262" lon="5.39055">
        <ele>123</ele>
        <time>2017-04-23T08:17:15Z</time>
      </trkpt>
      <trkpt lat="43.22611" lon="5.39054">
        <ele>123</ele>
        <time>2017-04-23T08:17:24Z</time>
      </trkpt>
      <trkpt lat="43.22603" lon="5.39049">
        <ele>124</ele>
        <time>2017-04-23T08:17:34Z</time>
      </trkpt>
      <trkpt lat="43.22593" lon="5.39044">
        <ele>129</ele>
        <time>2017-04-23T08:17:44Z</time>
      </trkpt>
      <trkpt lat="43.22586" lon="5.39047">
        <ele>129</ele>
        <time>2017-04-23T08:17:53Z</time>
      </trkpt>
      <trkpt lat="43.22579" lon="5.39049">
        <ele>129</ele>
        <time>2017-04-23T08:18:02Z</time>
      </trkpt>
      <trkpt lat="43.2257" lon="5.39045">
        <ele>129</ele>
        <time>2017-04-23T08:18:11Z</time>
      </trkpt>
      <trkpt lat="43.22561" lon="5.39046">
        <ele>129</ele>
        <time>2017-04-23T08:18:21Z</time>
      </trkpt>
      <trkpt lat="43.2255" lon="5.39047">
        <ele>129</ele>
        <time>2017-04-23T08:18:31Z</time>
      </trkpt>
      <trkpt lat="43.22541" lon="5.39046">
        <ele>128</ele>
        <time>2017-04-23T08:18:40Z</time>
      </trkpt>
      <trkpt lat="43.22533" lon="5.39044">
        <ele>125</ele>
        <time>2017-04-23T08:18:49Z</time>
      </trkpt>
      <trkpt lat="43.22525" lon="5.39045">
        <ele>125</ele>
        <time>2017-04-23T08:18:58Z</time>
      </trkpt>
      <trkpt lat="43.22516" lon="5.39045">
        <ele>125</ele>
        <time>2017-04-23T08:19:08Z</time>
      </trkpt>
      <trkpt lat="43.22507" lon="5.39044">
        <ele>125</ele>
        <time>2017-04-23T08:19:17Z</time>
      </trkpt>
      <trkpt lat="43.225" lon="5.39044">
        <ele>125</ele>
        <time>2017-04-23T08:19:27Z</time>
      </trkpt>
      <trkpt lat="43.22491" lon="5.39045">
        <ele>126</ele>
        <time>2017-04-23T08:19:37Z</time>
      </trkpt>
      <trkpt lat="43.22483" lon="5.39045">
        <ele>130</ele>
        <time>2017-04-23T08:19:47Z</time>
      </trkpt>
      <trkpt lat="43.22475" lon="5.39047">
        <ele>132</ele>
        <time>2017-04-23T08:19:57Z</time>
      </trkpt>
      <trkpt lat="43.22469" lon="5.39053">
        <ele>133</ele>
        <time>2017-04-23T08:20:07Z</time>
      </trkpt>
      <trkpt lat="43.22466" lon="5.39064">
        <ele>133</ele>
        <time>2017-04-23T08:20:17Z</time>
      </trkpt>
      <trkpt lat="43.22464" lon="5.39063">
        <ele>137</ele>
        <time>2017-04-23T08:20:26Z</time>
      </trkpt>
      <trkpt lat="43.22464" lon="5.39058">
        <ele>142</ele>
        <time>2017-04-23T08:20:35Z</time>
      </trkpt>
      <trkpt lat="43.22469" lon="5.3905">
        <ele>148</ele>
        <time>2017-04-23T08:20:44Z</time>
      </trkpt>
      <trkpt lat="43.22472" lon="5.39045">
        <ele>158</ele>
        <time>2017-04-23T08:20:53Z</time>
      </trkpt>
      <trkpt lat="43.22465" lon="5.39041">
        <ele>164</ele>
        <time>2017-04-23T08:21:03Z</time>
      </trkpt>
      <trkpt lat="43.22471" lon="5.39038">
        <ele>173</ele>
        <time>2017-04-23T08:21:14Z</time>
      </trkpt>
      <trkpt lat="43.22476" lon="5.39037">
        <ele>178</ele>
        <time>2017-04-23T08:21:23Z</time>
      </trkpt>
      <trkpt lat="43.22496" lon="5.39039">
        <ele>180</ele>
        <time>2017-04-23T08:21:34Z</time>
      </trkpt>
      <trkpt lat="43.22475" lon="5.3904">
        <ele>179</ele>
        <time>2017-04-23T08:21:45Z</time>
      </trkpt>
      <trkpt lat="43.22466" lon="5.3904">
        <ele>169</ele>
        <time>2017-04-23T08:21:55Z</time>
      </trkpt>
      <trkpt lat="43.22474" lon="5.39036">
        <ele>166</ele>
        <time>2017-04-23T08:22:04Z</time>
      </trkpt>
      <trkpt lat="43.22475" lon="5.39032">
        <ele>168</ele>
        <time>2017-04-23T08:22:13Z</time>
      </trkpt>
      <trkpt lat="43.22471" lon="5.39033">
        <ele>168</ele>
        <time>2017-04-23T08:22:23Z</time>
      </trkpt>
      <trkpt lat="43.2247" lon="5.39034">
        <ele>168</ele>
        <time>2017-04-23T08:22:34Z</time>
      </trkpt>
      <trkpt lat="43.22466" lon="5.39032">
        <ele>168</ele>
        <time>2017-04-23T08:22:47Z</time>
      </trkpt>
      <trkpt lat="43.22464" lon="5.3903">
        <ele>165</ele>
        <time>2017-04-23T08:22:59Z</time>
      </trkpt>
      <trkpt lat="43.22459" lon="5.39033">
        <ele>162</ele>
        <time>2017-04-23T08:23:08Z</time>
      </trkpt>
      <trkpt lat="43.22455" lon="5.39042">
        <ele>153</ele>
        <time>2017-04-23T08:23:18Z</time>
      </trkpt>
      <trkpt lat="43.22451" lon="5.39042">
        <ele>151</ele>
        <time>2017-04-23T08:23:28Z</time>
      </trkpt>
      <trkpt lat="43.22445" lon="5.39045">
        <ele>151</ele>
        <time>2017-04-23T08:23:38Z</time>
      </trkpt>
      <trkpt lat="43.22441" lon="5.39047">
        <ele>151</ele>
        <time>2017-04-23T08:23:47Z</time>
      </trkpt>
      <trkpt lat="43.22437" lon="5.39046">
        <ele>151</ele>
        <time>2017-04-23T08:23:56Z</time>
      </trkpt>
      <trkpt lat="43.22433" lon="5.39043">
        <ele>155</ele>
        <time>2017-04-23T08:24:06Z</time>
      </trkpt>
      <trkpt lat="43.22429" lon="5.39044">
        <ele>157</ele>
        <time>2017-04-23T08:24:17Z</time>
      </trkpt>
      <trkpt lat="43.22426" lon="5.39047">
        <ele>157</ele>
        <time>2017-04-23T08:24:26Z</time>
      </trkpt>
      <trkpt lat="43.22422" lon="5.39048">
        <ele>156</ele>
        <time>2017-04-23T08:24:36Z</time>
      </trkpt>
      <trkpt lat="43.22419" lon="5.39045">
        <ele>162</ele>
        <time>2017-04-23T08:24:46Z</time>
      </trkpt>
      <trkpt lat="43.22415" lon="5.39043">
        <ele>164</ele>
        <time>2017-04-23T08:24:59Z</time>
      </trkpt>
      <trkpt lat="43.2241" lon="5.39038">
        <ele>162</ele>
        <time>2017-04-23T08:25:11Z</time>
      </trkpt>
      <trkpt lat="43.22408" lon="5.39034">
        <ele>160</ele>
        <time>2017-04-23T08:25:23Z</time>
      </trkpt>
      <trkpt lat="43.22406" lon="5.39028">
        <ele>160</ele>
        <time>2017-04-23T08:25:32Z</time>
      </trkpt>
      <trkpt lat="43.22405" lon="5.39026">
        <ele>161</ele>
        <time>2017-04-23T08:25:42Z</time>
      </trkpt>
      <trkpt lat="43.22407" lon="5.39027">
        <ele>164</ele>
        <time>2017-04-23T08:25:53Z</time>
      </trkpt>
      <trkpt lat="43.22414" lon="5.39026">
        <ele>172</ele>
        <time>2017-04-23T08:26:03Z</time>
      </trkpt>
      <trkpt lat="43.22419" lon="5.39026">
        <ele>173</ele>
        <time>2017-04-23T08:26:13Z</time>
      </trkpt>
      <trkpt lat="43.22427" lon="5.39027">
        <ele>177</ele>
        <time>2017-04-23T08:26:22Z</time>
      </trkpt>
      <trkpt lat="43.22434" lon="5.39027">
        <ele>179</ele>
        <time>2017-04-23T08:26:32Z</time>
      </trkpt>
      <trkpt lat="43.2244" lon="5.39023">
        <ele>178</ele>
        <time>2017-04-23T08:26:42Z</time>
      </trkpt>
      <trkpt lat="43.22446" lon="5.3902">
        <ele>173</ele>
        <time>2017-04-23T08:26:52Z</time>
      </trkpt>
      <trkpt lat="43.22451" lon="5.39015">
        <ele>172</ele>
        <time>2017-04-23T08:27:02Z</time>
      </trkpt>
      <trkpt lat="43.22456" lon="5.39012">
        <ele>172</ele>
        <time>2017-04-23T08:27:13Z</time>
      </trkpt>
      <trkpt lat="43.2246" lon="5.39007">
        <ele>172</ele>
        <time>2017-04-23T08:27:22Z</time>
      </trkpt>
      <trkpt lat="43.22464" lon="5.39001">
        <ele>172</ele>
        <time>2017-04-23T08:27:33Z</time>
      </trkpt>
      <trkpt lat="43.22467" lon="5.38998">
        <ele>173</ele>
        <time>2017-04-23T08:27:42Z</time>
      </trkpt>
      <trkpt lat="43.22473" lon="5.38997">
        <ele>175</ele>
        <time>2017-04-23T08:27:51Z</time>
      </trkpt>
      <trkpt lat="43.22477" lon="5.3899">
        <ele>176</ele>
        <time>2017-04-23T08:28:02Z</time>
      </trkpt>
      <trkpt lat="43.2248" lon="5.38985">
        <ele>177</ele>
        <time>2017-04-23T08:28:11Z</time>
      </trkpt>
      <trkpt lat="43.22484" lon="5.38982">
        <ele>178</ele>
        <time>2017-04-23T08:28:20Z</time>
      </trkpt>
      <trkpt lat="43.22488" lon="5.3898">
        <ele>180</ele>
        <time>2017-04-23T08:28:35Z</time>
      </trkpt>
      <trkpt lat="43.2249" lon="5.38982">
        <ele>181</ele>
        <time>2017-04-23T08:28:45Z</time>
      </trkpt>
      <trkpt lat="43.22491" lon="5.38981">
        <ele>182</ele>
        <time>2017-04-23T08:29:56Z</time>
      </trkpt>
      <trkpt lat="43.2249" lon="5.3898">
        <ele>182</ele>
        <time>2017-04-23T08:30:18Z</time>
      </trkpt>
      <trkpt lat="43.22488" lon="5.38978">
        <ele>182</ele>
        <time>2017-04-23T08:30:28Z</time>
      </trkpt>
      <trkpt lat="43.22488" lon="5.38969">
        <ele>182</ele>
        <time>2017-04-23T08:30:38Z</time>
      </trkpt>
      <trkpt lat="43.2249" lon="5.38965">
        <ele>183</ele>
        <time>2017-04-23T08:30:48Z</time>
      </trkpt>
      <trkpt lat="43.22494" lon="5.38962">
        <ele>186</ele>
        <time>2017-04-23T08:30:57Z</time>
      </trkpt>
      <trkpt lat="43.225" lon="5.38961">
        <ele>189</ele>
        <time>2017-04-23T08:31:06Z</time>
      </trkpt>
      <trkpt lat="43.22505" lon="5.38958">
        <ele>190</ele>
        <time>2017-04-23T08:31:15Z</time>
      </trkpt>
      <trkpt lat="43.22508" lon="5.38958">
        <ele>190</ele>
        <time>2017-04-23T08:31:33Z</time>
      </trkpt>
      <trkpt lat="43.22509" lon="5.38957">
        <ele>191</ele>
        <time>2017-04-23T08:31:45Z</time>
      </trkpt>
      <trkpt lat="43.22511" lon="5.38949">
        <ele>192</ele>
        <time>2017-04-23T08:31:55Z</time>
      </trkpt>
      <trkpt lat="43.22514" lon="5.38942">
        <ele>192</ele>
        <time>2017-04-23T08:32:04Z</time>
      </trkpt>
      <trkpt lat="43.22518" lon="5.38932">
        <ele>192</ele>
        <time>2017-04-23T08:32:14Z</time>
      </trkpt>
      <trkpt lat="43.22524" lon="5.38928">
        <ele>193</ele>
        <time>2017-04-23T08:32:23Z</time>
      </trkpt>
      <trkpt lat="43.22528" lon="5.38919">
        <ele>194</ele>
        <time>2017-04-23T08:32:33Z</time>
      </trkpt>
      <trkpt lat="43.22533" lon="5.38911">
        <ele>195</ele>
        <time>2017-04-23T08:32:43Z</time>
      </trkpt>
      <trkpt lat="43.22536" lon="5.38902">
        <ele>196</ele>
        <time>2017-04-23T08:32:53Z</time>
      </trkpt>
      <trkpt lat="43.2254" lon="5.38892">
        <ele>196</ele>
        <time>2017-04-23T08:33:03Z</time>
      </trkpt>
      <trkpt lat="43.22541" lon="5.38885">
        <ele>196</ele>
        <time>2017-04-23T08:33:12Z</time>
      </trkpt>
      <trkpt lat="43.22546" lon="5.38876">
        <ele>196</ele>
        <time>2017-04-23T08:33:22Z</time>
      </trkpt>
      <trkpt lat="43.22553" lon="5.3887">
        <ele>196</ele>
        <time>2017-04-23T08:33:31Z</time>
      </trkpt>
      <trkpt lat="43.22561" lon="5.38868">
        <ele>196</ele>
        <time>2017-04-23T08:33:41Z</time>
      </trkpt>
      <trkpt lat="43.22569" lon="5.38858">
        <ele>196</ele>
        <time>2017-04-23T08:33:50Z</time>
      </trkpt>
      <trkpt lat="43.22575" lon="5.38845">
        <ele>196</ele>
        <time>2017-04-23T08:34:00Z</time>
      </trkpt>
      <trkpt lat="43.22582" lon="5.38837">
        <ele>196</ele>
        <time>2017-04-23T08:34:10Z</time>
      </trkpt>
      <trkpt lat="43.2259" lon="5.3883">
        <ele>197</ele>
        <time>2017-04-23T08:34:20Z</time>
      </trkpt>
      <trkpt lat="43.22594" lon="5.38821">
        <ele>197</ele>
        <time>2017-04-23T08:34:33Z</time>
      </trkpt>
      <trkpt lat="43.22598" lon="5.38818">
        <ele>204</ele>
        <time>2017-04-23T08:34:42Z</time>
      </trkpt>
      <trkpt lat="43.22597" lon="5.38814">
        <ele>213</ele>
        <time>2017-04-23T08:34:51Z</time>
      </trkpt>
      <trkpt lat="43.22599" lon="5.3881">
        <ele>215</ele>
        <time>2017-04-23T08:35:00Z</time>
      </trkpt>
      <trkpt lat="43.22604" lon="5.38803">
        <ele>215</ele>
        <time>2017-04-23T08:35:09Z</time>
      </trkpt>
      <trkpt lat="43.22608" lon="5.38796">
        <ele>215</ele>
        <time>2017-04-23T08:35:19Z</time>
      </trkpt>
      <trkpt lat="43.22617" lon="5.3879">
        <ele>217</ele>
        <time>2017-04-23T08:35:28Z</time>
      </trkpt>
      <trkpt lat="43.22618" lon="5.38788">
        <ele>221</ele>
        <time>2017-04-23T08:35:37Z</time>
      </trkpt>
      <trkpt lat="43.22628" lon="5.38782">
        <ele>225</ele>
        <time>2017-04-23T08:35:48Z</time>
      </trkpt>
      <trkpt lat="43.22635" lon="5.38775">
        <ele>226</ele>
        <time>2017-04-23T08:35:58Z</time>
      </trkpt>
      <trkpt lat="43.22641" lon="5.38771">
        <ele>227</ele>
        <time>2017-04-23T08:36:07Z</time>
      </trkpt>
      <trkpt lat="43.22645" lon="5.38767">
        <ele>231</ele>
        <time>2017-04-23T08:36:16Z</time>
      </trkpt>
      <trkpt lat="43.22653" lon="5.38763">
        <ele>234</ele>
        <time>2017-04-23T08:36:26Z</time>
      </trkpt>
      <trkpt lat="43.22654" lon="5.38757">
        <ele>234</ele>
        <time>2017-04-23T08:36:36Z</time>
      </trkpt>
      <trkpt lat="43.22655" lon="5.3875">
        <ele>233</ele>
        <time>2017-04-23T08:36:45Z</time>
      </trkpt>
      <trkpt lat="43.22649" lon="5.38746">
        <ele>233</ele>
        <time>2017-04-23T08:36:54Z</time>
      </trkpt>
      <trkpt lat="43.22644" lon="5.38742">
        <ele>231</ele>
        <time>2017-04-23T08:37:05Z</time>
      </trkpt>
      <trkpt lat="43.22646" lon="5.38739">
        <ele>225</ele>
        <time>2017-04-23T08:37:17Z</time>
      </trkpt>
      <trkpt lat="43.22649" lon="5.38735">
        <ele>225</ele>
        <time>2017-04-23T08:37:26Z</time>
      </trkpt>
      <trkpt lat="43.22654" lon="5.38735">
        <ele>225</ele>
        <time>2017-04-23T08:37:36Z</time>
      </trkpt>
      <trkpt lat="43.22659" lon="5.38734">
        <ele>225</ele>
        <time>2017-04-23T08:37:47Z</time>
      </trkpt>
      <trkpt lat="43.22663" lon="5.38729">
        <ele>227</ele>
        <time>2017-04-23T08:37:58Z</time>
      </trkpt>
      <trkpt lat="43.22665" lon="5.38724">
        <ele>229</ele>
        <time>2017-04-23T08:38:08Z</time>
      </trkpt>
      <trkpt lat="43.22668" lon="5.38718">
        <ele>231</ele>
        <time>2017-04-23T08:38:18Z</time>
      </trkpt>
      <trkpt lat="43.22668" lon="5.3871">
        <ele>233</ele>
        <time>2017-04-23T08:38:30Z</time>
      </trkpt>
      <trkpt lat="43.22671" lon="5.38709">
        <ele>233</ele>
        <time>2017-04-23T08:38:59Z</time>
      </trkpt>
      <trkpt lat="43.22672" lon="5.38708">
        <ele>233</ele>
        <time>2017-04-23T08:39:32Z</time>
      </trkpt>
      <trkpt lat="43.22672" lon="5.38709">
        <ele>233</ele>
        <time>2017-04-23T08:39:48Z</time>
      </trkpt>
      <trkpt lat="43.22672" lon="5.3871">
        <ele>233</ele>
        <time>2017-04-23T08:40:22Z</time>
      </trkpt>
      <trkpt lat="43.22671" lon="5.3871">
        <ele>233</ele>
        <time>2017-04-23T08:40:45Z</time>
      </trkpt>
      <trkpt lat="43.2267" lon="5.38708">
        <ele>233</ele>
        <time>2017-04-23T08:41:16Z</time>
      </trkpt>
      <trkpt lat="43.2267" lon="5.38707">
        <ele>233</ele>
        <time>2017-04-23T08:41:37Z</time>
      </trkpt>
      <trkpt lat="43.22669" lon="5.38707">
        <ele>233</ele>
        <time>2017-04-23T08:42:53Z</time>
      </trkpt>
      <trkpt lat="43.22668" lon="5.38706">
        <ele>233</ele>
        <time>2017-04-23T08:43:05Z</time>
      </trkpt>
      <trkpt lat="43.22668" lon="5.38704">
        <ele>233</ele>
        <time>2017-04-23T08:43:38Z</time>
      </trkpt>
      <trkpt lat="43.22669" lon="5.38703">
        <ele>233</ele>
        <time>2017-04-23T08:44:22Z</time>
      </trkpt>
      <trkpt lat="43.2267" lon="5.38695">
        <ele>233</ele>
        <time>2017-04-23T08:44:32Z</time>
      </trkpt>
      <trkpt lat="43.22668" lon="5.38687">
        <ele>233</ele>
        <time>2017-04-23T08:44:41Z</time>
      </trkpt>
      <trkpt lat="43.22664" lon="5.3868">
        <ele>233</ele>
        <time>2017-04-23T08:44:53Z</time>
      </trkpt>
      <trkpt lat="43.22661" lon="5.38673">
        <ele>231</ele>
        <time>2017-04-23T08:45:02Z</time>
      </trkpt>
      <trkpt lat="43.2266" lon="5.38664">
        <ele>227</ele>
        <time>2017-04-23T08:45:12Z</time>
      </trkpt>
      <trkpt lat="43.2266" lon="5.38656">
        <ele>226</ele>
        <time>2017-04-23T08:45:22Z</time>
      </trkpt>
      <trkpt lat="43.22663" lon="5.38645">
        <ele>223</ele>
        <time>2017-04-23T08:45:31Z</time>
      </trkpt>
      <trkpt lat="43.22663" lon="5.3864">
        <ele>220</ele>
        <time>2017-04-23T08:45:42Z</time>
      </trkpt>
      <trkpt lat="43.2266" lon="5.38632">
        <ele>217</ele>
        <time>2017-04-23T08:45:52Z</time>
      </trkpt>
      <trkpt lat="43.2266" lon="5.38623">
        <ele>215</ele>
        <time>2017-04-23T08:46:02Z</time>
      </trkpt>
      <trkpt lat="43.22663" lon="5.38611">
        <ele>215</ele>
        <time>2017-04-23T08:46:12Z</time>
      </trkpt>
      <trkpt lat="43.22665" lon="5.38592">
        <ele>215</ele>
        <time>2017-04-23T08:46:22Z</time>
      </trkpt>
      <trkpt lat="43.22667" lon="5.38579">
        <ele>216</ele>
        <time>2017-04-23T08:46:31Z</time>
      </trkpt>
      <trkpt lat="43.2267" lon="5.38566">
        <ele>216</ele>
        <time>2017-04-23T08:46:41Z</time>
      </trkpt>
      <trkpt lat="43.22673" lon="5.38554">
        <ele>216</ele>
        <time>2017-04-23T08:46:50Z</time>
      </trkpt>
      <trkpt lat="43.22678" lon="5.38545">
        <ele>218</ele>
        <time>2017-04-23T08:47:01Z</time>
      </trkpt>
      <trkpt lat="43.22685" lon="5.38535">
        <ele>220</ele>
        <time>2017-04-23T08:47:10Z</time>
      </trkpt>
      <trkpt lat="43.22694" lon="5.38528">
        <ele>220</ele>
        <time>2017-04-23T08:47:19Z</time>
      </trkpt>
      <trkpt lat="43.22701" lon="5.38519">
        <ele>221</ele>
        <time>2017-04-23T08:47:29Z</time>
      </trkpt>
      <trkpt lat="43.22709" lon="5.38511">
        <ele>222</ele>
        <time>2017-04-23T08:47:40Z</time>
      </trkpt>
      <trkpt lat="43.2272" lon="5.38507">
        <ele>223</ele>
        <time>2017-04-23T08:47:50Z</time>
      </trkpt>
      <trkpt lat="43.22728" lon="5.38502">
        <ele>224</ele>
        <time>2017-04-23T08:48:00Z</time>
      </trkpt>
      <trkpt lat="43.22736" lon="5.38498">
        <ele>224</ele>
        <time>2017-04-23T08:48:10Z</time>
      </trkpt>
      <trkpt lat="43.22744" lon="5.38494">
        <ele>226</ele>
        <time>2017-04-23T08:48:20Z</time>
      </trkpt>
      <trkpt lat="43.22752" lon="5.38493">
        <ele>228</ele>
        <time>2017-04-23T08:48:30Z</time>
      </trkpt>
      <trkpt lat="43.22759" lon="5.38489">
        <ele>231</ele>
        <time>2017-04-23T08:48:39Z</time>
      </trkpt>
      <trkpt lat="43.22765" lon="5.3848">
        <ele>231</ele>
        <time>2017-04-23T08:48:50Z</time>
      </trkpt>
      <trkpt lat="43.22771" lon="5.38474">
        <ele>231</ele>
        <time>2017-04-23T08:49:00Z</time>
      </trkpt>
      <trkpt lat="43.22777" lon="5.38473">
        <ele>232</ele>
        <time>2017-04-23T08:49:09Z</time>
      </trkpt>
      <trkpt lat="43.22783" lon="5.38474">
        <ele>234</ele>
        <time>2017-04-23T08:49:19Z</time>
      </trkpt>
      <trkpt lat="43.22788" lon="5.38472">
        <ele>237</ele>
        <time>2017-04-23T08:49:29Z</time>
      </trkpt>
      <trkpt lat="43.22796" lon="5.38472">
        <ele>238</ele>
        <time>2017-04-23T08:49:39Z</time>
      </trkpt>
      <trkpt lat="43.22804" lon="5.3847">
        <ele>239</ele>
        <time>2017-04-23T08:49:49Z</time>
      </trkpt>
      <trkpt lat="43.22813" lon="5.38463">
        <ele>240</ele>
        <time>2017-04-23T08:49:59Z</time>
      </trkpt>
      <trkpt lat="43.2282" lon="5.38456">
        <ele>240</ele>
        <time>2017-04-23T08:50:09Z</time>
      </trkpt>
      <trkpt lat="43.22824" lon="5.38446">
        <ele>241</ele>
        <time>2017-04-23T08:50:19Z</time>
      </trkpt>
      <trkpt lat="43.22826" lon="5.38437">
        <ele>243</ele>
        <time>2017-04-23T08:50:29Z</time>
      </trkpt>
      <trkpt lat="43.22829" lon="5.38428">
        <ele>245</ele>
        <time>2017-04-23T08:50:41Z</time>
      </trkpt>
      <trkpt lat="43.22836" lon="5.3842">
        <ele>247</ele>
        <time>2017-04-23T08:50:51Z</time>
      </trkpt>
      <trkpt lat="43.2284" lon="5.38411">
        <ele>248</ele>
        <time>2017-04-23T08:51:01Z</time>
      </trkpt>
      <trkpt lat="43.2284" lon="5.38408">
        <ele>249</ele>
        <time>2017-04-23T08:51:17Z</time>
      </trkpt>
      <trkpt lat="43.22842" lon="5.38409">
        <ele>250</ele>
        <time>2017-04-23T08:51:29Z</time>
      </trkpt>
      <trkpt lat="43.22845" lon="5.384">
        <ele>250</ele>
        <time>2017-04-23T08:51:40Z</time>
      </trkpt>
      <trkpt lat="43.22848" lon="5.38391">
        <ele>251</ele>
        <time>2017-04-23T08:51:50Z</time>
      </trkpt>
      <trkpt lat="43.2285" lon="5.3838">
        <ele>251</ele>
        <time>2017-04-23T08:52:00Z</time>
      </trkpt>
      <trkpt lat="43.22853" lon="5.38369">
        <ele>251</ele>
        <time>2017-04-23T08:52:10Z</time>
      </trkpt>
      <trkpt lat="43.22858" lon="5.3836">
        <ele>251</ele>
        <time>2017-04-23T08:52:20Z</time>
      </trkpt>
      <trkpt lat="43.22863" lon="5.3835">
        <ele>251</ele>
        <time>2017-04-23T08:52:30Z</time>
      </trkpt>
      <trkpt lat="43.22864" lon="5.38343">
        <ele>251</ele>
        <time>2017-04-23T08:52:39Z</time>
      </trkpt>
      <trkpt lat="43.22865" lon="5.38329">
        <ele>251</ele>
        <time>2017-04-23T08:52:50Z</time>
      </trkpt>
      <trkpt lat="43.22861" lon="5.38313">
        <ele>251</ele>
        <time>2017-04-23T08:53:01Z</time>
      </trkpt>
      <trkpt lat="43.22861" lon="5.38299">
        <ele>251</ele>
        <time>2017-04-23T08:53:11Z</time>
      </trkpt>
      <trkpt lat="43.22861" lon="5.38286">
        <ele>251</ele>
        <time>2017-04-23T08:53:21Z</time>
      </trkpt>
      <trkpt lat="43.22861" lon="5.38276">
        <ele>251</ele>
        <time>2017-04-23T08:53:31Z</time>
      </trkpt>
      <trkpt lat="43.22857" lon="5.38267">
        <ele>251</ele>
        <time>2017-04-23T08:53:41Z</time>
      </trkpt>
      <trkpt lat="43.22855" lon="5.38259">
        <ele>255</ele>
        <time>2017-04-23T08:53:51Z</time>
      </trkpt>
      <trkpt lat="43.22852" lon="5.38248">
        <ele>258</ele>
        <time>2017-04-23T08:54:01Z</time>
      </trkpt>
      <trkpt lat="43.22853" lon="5.38237">
        <ele>260</ele>
        <time>2017-04-23T08:54:11Z</time>
      </trkpt>
      <trkpt lat="43.22852" lon="5.38226">
        <ele>262</ele>
        <time>2017-04-23T08:54:21Z</time>
      </trkpt>
      <trkpt lat="43.22851" lon="5.38217">
        <ele>263</ele>
        <time>2017-04-23T08:54:32Z</time>
      </trkpt>
      <trkpt lat="43.22845" lon="5.38213">
        <ele>263</ele>
        <time>2017-04-23T08:54:41Z</time>
      </trkpt>
      <trkpt lat="43.22847" lon="5.38207">
        <ele>263</ele>
        <time>2017-04-23T08:54:51Z</time>
      </trkpt>
      <trkpt lat="43.2285" lon="5.38201">
        <ele>263</ele>
        <time>2017-04-23T08:55:02Z</time>
      </trkpt>
      <trkpt lat="43.22852" lon="5.38194">
        <ele>263</ele>
        <time>2017-04-23T08:55:20Z</time>
      </trkpt>
      <trkpt lat="43.22851" lon="5.38195">
        <ele>263</ele>
        <time>2017-04-23T08:55:34Z</time>
      </trkpt>
      <trkpt lat="43.2285" lon="5.38195">
        <ele>263</ele>
        <time>2017-04-23T08:55:46Z</time>
      </trkpt>
      <trkpt lat="43.22849" lon="5.38196">
        <ele>263</ele>
        <time>2017-04-23T08:56:05Z</time>
      </trkpt>
      <trkpt lat="43.2285" lon="5.38195">
        <ele>263</ele>
        <time>2017-04-23T08:56:48Z</time>
      </trkpt>
      <trkpt lat="43.22853" lon="5.38191">
        <ele>263</ele>
        <time>2017-04-23T08:56:58Z</time>
      </trkpt>
      <trkpt lat="43.22854" lon="5.38181">
        <ele>264</ele>
        <time>2017-04-23T08:57:27Z</time>
      </trkpt>
      <trkpt lat="43.22855" lon="5.3818">
        <ele>265</ele>
        <time>2017-04-23T08:57:38Z</time>
      </trkpt>
      <trkpt lat="43.22855" lon="5.38177">
        <ele>266</ele>
        <time>2017-04-23T08:57:47Z</time>
      </trkpt>
      <trkpt lat="43.22855" lon="5.38177">
        <ele>266</ele>
        <time>2017-04-23T08:58:10Z</time>
      </trkpt>
      <trkpt lat="43.22856" lon="5.38178">
        <ele>266</ele>
        <time>2017-04-23T08:58:19Z</time>
      </trkpt>
      <trkpt lat="43.22855" lon="5.3818">
        <ele>265</ele>
        <time>2017-04-23T08:58:58Z</time>
      </trkpt>
      <trkpt lat="43.22855" lon="5.38181">
        <ele>263</ele>
        <time>2017-04-23T08:59:31Z</time>
      </trkpt>
      <trkpt lat="43.22854" lon="5.38184">
        <ele>263</ele>
        <time>2017-04-23T09:00:11Z</time>
      </trkpt>
      <trkpt lat="43.22855" lon="5.38188">
        <ele>263</ele>
        <time>2017-04-23T09:01:04Z</time>
      </trkpt>
      <trkpt lat="43.22849" lon="5.38198">
        <ele>263</ele>
        <time>2017-04-23T09:01:14Z</time>
      </trkpt>
      <trkpt lat="43.22843" lon="5.38206">
        <ele>263</ele>
        <time>2017-04-23T09:01:24Z</time>
      </trkpt>
      <trkpt lat="43.22837" lon="5.38206">
        <ele>263</ele>
        <time>2017-04-23T09:01:33Z</time>
      </trkpt>
      <trkpt lat="43.22834" lon="5.38198">
        <ele>264</ele>
        <time>2017-04-23T09:01:43Z</time>
      </trkpt>
      <trkpt lat="43.22827" lon="5.38193">
        <ele>265</ele>
        <time>2017-04-23T09:01:52Z</time>
      </trkpt>
      <trkpt lat="43.22822" lon="5.38187">
        <ele>265</ele>
        <time>2017-04-23T09:02:01Z</time>
      </trkpt>
      <trkpt lat="43.22814" lon="5.38182">
        <ele>264</ele>
        <time>2017-04-23T09:02:10Z</time>
      </trkpt>
      <trkpt lat="43.22805" lon="5.38183">
        <ele>261</ele>
        <time>2017-04-23T09:02:19Z</time>
      </trkpt>
      <trkpt lat="43.22795" lon="5.38185">
        <ele>259</ele>
        <time>2017-04-23T09:02:28Z</time>
      </trkpt>
      <trkpt lat="43.22786" lon="5.38183">
        <ele>257</ele>
        <time>2017-04-23T09:02:39Z</time>
      </trkpt>
      <trkpt lat="43.22776" lon="5.38188">
        <ele>256</ele>
        <time>2017-04-23T09:02:49Z</time>
      </trkpt>
      <trkpt lat="43.22769" lon="5.38188">
        <ele>255</ele>
        <time>2017-04-23T09:02:58Z</time>
      </trkpt>
      <trkpt lat="43.22762" lon="5.3819">
        <ele>253</ele>
        <time>2017-04-23T09:03:07Z</time>
      </trkpt>
      <trkpt lat="43.22752" lon="5.38192">
        <ele>252</ele>
        <time>2017-04-23T09:03:17Z</time>
      </trkpt>
      <trkpt lat="43.22746" lon="5.38191">
        <ele>251</ele>
        <time>2017-04-23T09:03:26Z</time>
      </trkpt>
      <trkpt lat="43.22738" lon="5.38189">
        <ele>252</ele>
        <time>2017-04-23T09:03:36Z</time>
      </trkpt>
      <trkpt lat="43.22729" lon="5.38186">
        <ele>252</ele>
        <time>2017-04-23T09:03:45Z</time>
      </trkpt>
      <trkpt lat="43.22721" lon="5.38183">
        <ele>252</ele>
        <time>2017-04-23T09:03:54Z</time>
      </trkpt>
      <trkpt lat="43.22713" lon="5.38179">
        <ele>252</ele>
        <time>2017-04-23T09:04:04Z</time>
      </trkpt>
      <trkpt lat="43.22704" lon="5.38176">
        <ele>252</ele>
        <time>2017-04-23T09:04:13Z</time>
      </trkpt>
      <trkpt lat="43.22701" lon="5.38167">
        <ele>252</ele>
        <time>2017-04-23T09:04:22Z</time>
      </trkpt>
      <trkpt lat="43.22692" lon="5.3816">
        <ele>252</ele>
        <time>2017-04-23T09:04:32Z</time>
      </trkpt>
      <trkpt lat="43.22686" lon="5.38153">
        <ele>252</ele>
        <time>2017-04-23T09:04:42Z</time>
      </trkpt>
      <trkpt lat="43.22681" lon="5.38144">
        <ele>254</ele>
        <time>2017-04-23T09:04:52Z</time>
      </trkpt>
      <trkpt lat="43.22676" lon="5.38139">
        <ele>258</ele>
        <time>2017-04-23T09:05:01Z</time>
      </trkpt>
      <trkpt lat="43.22671" lon="5.38133">
        <ele>258</ele>
        <time>2017-04-23T09:05:12Z</time>
      </trkpt>
      <trkpt lat="43.22665" lon="5.38124">
        <ele>258</ele>
        <time>2017-04-23T09:05:22Z</time>
      </trkpt>
      <trkpt lat="43.2266" lon="5.38114">
        <ele>258</ele>
        <time>2017-04-23T09:05:31Z</time>
      </trkpt>
      <trkpt lat="43.22657" lon="5.38104">
        <ele>258</ele>
        <time>2017-04-23T09:05:40Z</time>
      </trkpt>
      <trkpt lat="43.22656" lon="5.3809">
        <ele>258</ele>
        <time>2017-04-23T09:05:49Z</time>
      </trkpt>
      <trkpt lat="43.22654" lon="5.38079">
        <ele>258</ele>
        <time>2017-04-23T09:05:58Z</time>
      </trkpt>
      <trkpt lat="43.22645" lon="5.38069">
        <ele>258</ele>
        <time>2017-04-23T09:06:07Z</time>
      </trkpt>
      <trkpt lat="43.22641" lon="5.38055">
        <ele>257</ele>
        <time>2017-04-23T09:06:17Z</time>
      </trkpt>
      <trkpt lat="43.2264" lon="5.38042">
        <ele>257</ele>
        <time>2017-04-23T09:06:26Z</time>
      </trkpt>
      <trkpt lat="43.22634" lon="5.3803">
        <ele>255</ele>
        <time>2017-04-23T09:06:36Z</time>
      </trkpt>
      <trkpt lat="43.22632" lon="5.38018">
        <ele>254</ele>
        <time>2017-04-23T09:06:45Z</time>
      </trkpt>
      <trkpt lat="43.2263" lon="5.38005">
        <ele>254</ele>
        <time>2017-04-23T09:06:55Z</time>
      </trkpt>
      <trkpt lat="43.22623" lon="5.37998">
        <ele>252</ele>
        <time>2017-04-23T09:07:06Z</time>
      </trkpt>
      <trkpt lat="43.22617" lon="5.37995">
        <ele>250</ele>
        <time>2017-04-23T09:07:17Z</time>
      </trkpt>
      <trkpt lat="43.22612" lon="5.37994">
        <ele>248</ele>
        <time>2017-04-23T09:07:27Z</time>
      </trkpt>
      <trkpt lat="43.22606" lon="5.37992">
        <ele>247</ele>
        <time>2017-04-23T09:07:36Z</time>
      </trkpt>
      <trkpt lat="43.22601" lon="5.37982">
        <ele>247</ele>
        <time>2017-04-23T09:07:46Z</time>
      </trkpt>
      <trkpt lat="43.22598" lon="5.37969">
        <ele>247</ele>
        <time>2017-04-23T09:07:55Z</time>
      </trkpt>
      <trkpt lat="43.22596" lon="5.37957">
        <ele>247</ele>
        <time>2017-04-23T09:08:04Z</time>
      </trkpt>
      <trkpt lat="43.22592" lon="5.37947">
        <ele>247</ele>
        <time>2017-04-23T09:08:13Z</time>
      </trkpt>
      <trkpt lat="43.22588" lon="5.3794">
        <ele>245</ele>
        <time>2017-04-23T09:08:22Z</time>
      </trkpt>
      <trkpt lat="43.2258" lon="5.37935">
        <ele>242</ele>
        <time>2017-04-23T09:08:33Z</time>
      </trkpt>
      <trkpt lat="43.22577" lon="5.37932">
        <ele>240</ele>
        <time>2017-04-23T09:08:45Z</time>
      </trkpt>
      <trkpt lat="43.22573" lon="5.37928">
        <ele>239</ele>
        <time>2017-04-23T09:08:55Z</time>
      </trkpt>
      <trkpt lat="43.22568" lon="5.37924">
        <ele>238</ele>
        <time>2017-04-23T09:09:04Z</time>
      </trkpt>
      <trkpt lat="43.22564" lon="5.37923">
        <ele>236</ele>
        <time>2017-04-23T09:09:13Z</time>
      </trkpt>
      <trkpt lat="43.22557" lon="5.37922">
        <ele>235</ele>
        <time>2017-04-23T09:09:24Z</time>
      </trkpt>
      <trkpt lat="43.22551" lon="5.37921">
        <ele>234</ele>
        <time>2017-04-23T09:09:33Z</time>
      </trkpt>
      <trkpt lat="43.22545" lon="5.37918">
        <ele>234</ele>
        <time>2017-04-23T09:09:43Z</time>
      </trkpt>
      <trkpt lat="43.2254" lon="5.37914">
        <ele>234</ele>
        <time>2017-04-23T09:09:53Z</time>
      </trkpt>
      <trkpt lat="43.22532" lon="5.3791">
        <ele>232</ele>
        <time>2017-04-23T09:10:02Z</time>
      </trkpt>
      <trkpt lat="43.22525" lon="5.37911">
        <ele>230</ele>
        <time>2017-04-23T09:10:11Z</time>
      </trkpt>
      <trkpt lat="43.22517" lon="5.37914">
        <ele>229</ele>
        <time>2017-04-23T09:10:20Z</time>
      </trkpt>
      <trkpt lat="43.22511" lon="5.37921">
        <ele>229</ele>
        <time>2017-04-23T09:10:32Z</time>
      </trkpt>
      <trkpt lat="43.22507" lon="5.37926">
        <ele>229</ele>
        <time>2017-04-23T09:10:42Z</time>
      </trkpt>
      <trkpt lat="43.225" lon="5.3793">
        <ele>229</ele>
        <time>2017-04-23T09:10:51Z</time>
      </trkpt>
      <trkpt lat="43.22494" lon="5.37933">
        <ele>229</ele>
        <time>2017-04-23T09:11:01Z</time>
      </trkpt>
      <trkpt lat="43.22482" lon="5.37927">
        <ele>228</ele>
        <time>2017-04-23T09:11:10Z</time>
      </trkpt>
      <trkpt lat="43.22474" lon="5.3792">
        <ele>227</ele>
        <time>2017-04-23T09:11:19Z</time>
      </trkpt>
      <trkpt lat="43.22466" lon="5.37915">
        <ele>227</ele>
        <time>2017-04-23T09:11:29Z</time>
      </trkpt>
      <trkpt lat="43.22464" lon="5.37909">
        <ele>227</ele>
        <time>2017-04-23T09:11:39Z</time>
      </trkpt>
      <trkpt lat="43.22456" lon="5.379">
        <ele>227</ele>
        <time>2017-04-23T09:11:48Z</time>
      </trkpt>
      <trkpt lat="43.22451" lon="5.37891">
        <ele>233</ele>
        <time>2017-04-23T09:11:59Z</time>
      </trkpt>
      <trkpt lat="43.22445" lon="5.37885">
        <ele>234</ele>
        <time>2017-04-23T09:12:08Z</time>
      </trkpt>
      <trkpt lat="43.22435" lon="5.37876">
        <ele>236</ele>
        <time>2017-04-23T09:12:18Z</time>
      </trkpt>
      <trkpt lat="43.22433" lon="5.37867">
        <ele>236</ele>
        <time>2017-04-23T09:12:27Z</time>
      </trkpt>
      <trkpt lat="43.22432" lon="5.37861">
        <ele>238</ele>
        <time>2017-04-23T09:12:37Z</time>
      </trkpt>
      <trkpt lat="43.22427" lon="5.37852">
        <ele>239</ele>
        <time>2017-04-23T09:12:47Z</time>
      </trkpt>
      <trkpt lat="43.22423" lon="5.37848">
        <ele>239</ele>
        <time>2017-04-23T09:12:56Z</time>
      </trkpt>
      <trkpt lat="43.22415" lon="5.37843">
        <ele>241</ele>
        <time>2017-04-23T09:13:07Z</time>
      </trkpt>
      <trkpt lat="43.22413" lon="5.37846">
        <ele>241</ele>
        <time>2017-04-23T09:13:16Z</time>
      </trkpt>
      <trkpt lat="43.2241" lon="5.37846">
        <ele>241</ele>
        <time>2017-04-23T09:13:30Z</time>
      </trkpt>
      <trkpt lat="43.22409" lon="5.37849">
        <ele>241</ele>
        <time>2017-04-23T09:13:39Z</time>
      </trkpt>
      <trkpt lat="43.22406" lon="5.37855">
        <ele>244</ele>
        <time>2017-04-23T09:13:50Z</time>
      </trkpt>
      <trkpt lat="43.22406" lon="5.3786">
        <ele>252</ele>
        <time>2017-04-23T09:13:59Z</time>
      </trkpt>
      <trkpt lat="43.22406" lon="5.3787">
        <ele>257</ele>
        <time>2017-04-23T09:14:08Z</time>
      </trkpt>
      <trkpt lat="43.22404" lon="5.37881">
        <ele>257</ele>
        <time>2017-04-23T09:14:17Z</time>
      </trkpt>
      <trkpt lat="43.22398" lon="5.37891">
        <ele>257</ele>
        <time>2017-04-23T09:14:28Z</time>
      </trkpt>
      <trkpt lat="43.22395" lon="5.37897">
        <ele>257</ele>
        <time>2017-04-23T09:14:37Z</time>
      </trkpt>
      <trkpt lat="43.22393" lon="5.37899">
        <ele>257</ele>
        <time>2017-04-23T09:14:49Z</time>
      </trkpt>
      <trkpt lat="43.22389" lon="5.37899">
        <ele>257</ele>
        <time>2017-04-23T09:15:01Z</time>
      </trkpt>
      <trkpt lat="43.22386" lon="5.37903">
        <ele>257</ele>
        <time>2017-04-23T09:15:10Z</time>
      </trkpt>
      <trkpt lat="43.22382" lon="5.37905">
        <ele>258</ele>
        <time>2017-04-23T09:15:23Z</time>
      </trkpt>
      <trkpt lat="43.22378" lon="5.37902">
        <ele>261</ele>
        <time>2017-04-23T09:15:34Z</time>
      </trkpt>
      <trkpt lat="43.22375" lon="5.37897">
        <ele>264</ele>
        <time>2017-04-23T09:15:45Z</time>
      </trkpt>
      <trkpt lat="43.22374" lon="5.37891">
        <ele>265</ele>
        <time>2017-04-23T09:15:54Z</time>
      </trkpt>
      <trkpt lat="43.22372" lon="5.37886">
        <ele>266</ele>
        <time>2017-04-23T09:16:03Z</time>
      </trkpt>
      <trkpt lat="43.22369" lon="5.3788">
        <ele>267</ele>
        <time>2017-04-23T09:16:13Z</time>
      </trkpt>
      <trkpt lat="43.22364" lon="5.37876">
        <ele>267</ele>
        <time>2017-04-23T09:16:23Z</time>
      </trkpt>
      <trkpt lat="43.22361" lon="5.37872">
        <ele>268</ele>
        <time>2017-04-23T09:16:32Z</time>
      </trkpt>
      <trkpt lat="43.22358" lon="5.37868">
        <ele>270</ele>
        <time>2017-04-23T09:16:43Z</time>
      </trkpt>
      <trkpt lat="43.22354" lon="5.37863">
        <ele>272</ele>
        <time>2017-04-23T09:16:52Z</time>
      </trkpt>
      <trkpt lat="43.22349" lon="5.37859">
        <ele>273</ele>
        <time>2017-04-23T09:17:02Z</time>
      </trkpt>
      <trkpt lat="43.22346" lon="5.37852">
        <ele>275</ele>
        <time>2017-04-23T09:17:11Z</time>
      </trkpt>
      <trkpt lat="43.22345" lon="5.37855">
        <ele>275</ele>
        <time>2017-04-23T09:17:22Z</time>
      </trkpt>
      <trkpt lat="43.22345" lon="5.37859">
        <ele>275</ele>
        <time>2017-04-23T09:17:35Z</time>
      </trkpt>
      <trkpt lat="43.22346" lon="5.37862">
        <ele>275</ele>
        <time>2017-04-23T09:18:22Z</time>
      </trkpt>
      <trkpt lat="43.22345" lon="5.37863">
        <ele>275</ele>
        <time>2017-04-23T09:18:55Z</time>
      </trkpt>
      <trkpt lat="43.22346" lon="5.37864">
        <ele>276</ele>
        <time>2017-04-23T09:19:10Z</time>
      </trkpt>
      <trkpt lat="43.22348" lon="5.37862">
        <ele>277</ele>
        <time>2017-04-23T09:19:38Z</time>
      </trkpt>
      <trkpt lat="43.22347" lon="5.37862">
        <ele>277</ele>
        <time>2017-04-23T09:19:59Z</time>
      </trkpt>
      <trkpt lat="43.22345" lon="5.3787">
        <ele>277</ele>
        <time>2017-04-23T09:20:10Z</time>
      </trkpt>
      <trkpt lat="43.22344" lon="5.37878">
        <ele>277</ele>
        <time>2017-04-23T09:20:20Z</time>
      </trkpt>
      <trkpt lat="43.2234" lon="5.3789">
        <ele>277</ele>
        <time>2017-04-23T09:20:30Z</time>
      </trkpt>
      <trkpt lat="43.22334" lon="5.37899">
        <ele>277</ele>
        <time>2017-04-23T09:20:40Z</time>
      </trkpt>
      <trkpt lat="43.22331" lon="5.37907">
        <ele>277</ele>
        <time>2017-04-23T09:20:50Z</time>
      </trkpt>
      <trkpt lat="43.22329" lon="5.37918">
        <ele>279</ele>
        <time>2017-04-23T09:21:00Z</time>
      </trkpt>
      <trkpt lat="43.22327" lon="5.37929">
        <ele>281</ele>
        <time>2017-04-23T09:21:10Z</time>
      </trkpt>
      <trkpt lat="43.22326" lon="5.37942">
        <ele>283</ele>
        <time>2017-04-23T09:21:20Z</time>
      </trkpt>
      <trkpt lat="43.22325" lon="5.37954">
        <ele>284</ele>
        <time>2017-04-23T09:21:30Z</time>
      </trkpt>
      <trkpt lat="43.22324" lon="5.37966">
        <ele>284</ele>
        <time>2017-04-23T09:21:40Z</time>
      </trkpt>
      <trkpt lat="43.22324" lon="5.37978">
        <ele>286</ele>
        <time>2017-04-23T09:21:49Z</time>
      </trkpt>
      <trkpt lat="43.22324" lon="5.37993">
        <ele>286</ele>
        <time>2017-04-23T09:21:58Z</time>
      </trkpt>
      <trkpt lat="43.22322" lon="5.38005">
        <ele>286</ele>
        <time>2017-04-23T09:22:08Z</time>
      </trkpt>
      <trkpt lat="43.22317" lon="5.38018">
        <ele>286</ele>
        <time>2017-04-23T09:22:18Z</time>
      </trkpt>
      <trkpt lat="43.22314" lon="5.38028">
        <ele>286</ele>
        <time>2017-04-23T09:22:28Z</time>
      </trkpt>
      <trkpt lat="43.22311" lon="5.38035">
        <ele>286</ele>
        <time>2017-04-23T09:22:38Z</time>
      </trkpt>
      <trkpt lat="43.22305" lon="5.38044">
        <ele>286</ele>
        <time>2017-04-23T09:22:49Z</time>
      </trkpt>
      <trkpt lat="43.22302" lon="5.38056">
        <ele>286</ele>
        <time>2017-04-23T09:22:59Z</time>
      </trkpt>
      <trkpt lat="43.22298" lon="5.38066">
        <ele>286</ele>
        <time>2017-04-23T09:23:08Z</time>
      </trkpt>
      <trkpt lat="43.22295" lon="5.38077">
        <ele>286</ele>
        <time>2017-04-23T09:23:18Z</time>
      </trkpt>
      <trkpt lat="43.22294" lon="5.38088">
        <ele>287</ele>
        <time>2017-04-23T09:23:27Z</time>
      </trkpt>
      <trkpt lat="43.22291" lon="5.38098">
        <ele>288</ele>
        <time>2017-04-23T09:23:37Z</time>
      </trkpt>
      <trkpt lat="43.22286" lon="5.38104">
        <ele>290</ele>
        <time>2017-04-23T09:23:47Z</time>
      </trkpt>
      <trkpt lat="43.22283" lon="5.38114">
        <ele>291</ele>
        <time>2017-04-23T09:23:57Z</time>
      </trkpt>
      <trkpt lat="43.22281" lon="5.38123">
        <ele>293</ele>
        <time>2017-04-23T09:24:07Z</time>
      </trkpt>
      <trkpt lat="43.2228" lon="5.38134">
        <ele>295</ele>
        <time>2017-04-23T09:24:17Z</time>
      </trkpt>
      <trkpt lat="43.22279" lon="5.38145">
        <ele>296</ele>
        <time>2017-04-23T09:24:27Z</time>
      </trkpt>
      <trkpt lat="43.22281" lon="5.38155">
        <ele>298</ele>
        <time>2017-04-23T09:24:37Z</time>
      </trkpt>
      <trkpt lat="43.22285" lon="5.38163">
        <ele>299</ele>
        <time>2017-04-23T09:24:47Z</time>
      </trkpt>
      <trkpt lat="43.22287" lon="5.3817">
        <ele>300</ele>
        <time>2017-04-23T09:24:56Z</time>
      </trkpt>
      <trkpt lat="43.22286" lon="5.38171">
        <ele>302</ele>
        <time>2017-04-23T09:25:08Z</time>
      </trkpt>
      <trkpt lat="43.22288" lon="5.38175">
        <ele>303</ele>
        <time>2017-04-23T09:25:17Z</time>
      </trkpt>
      <trkpt lat="43.22292" lon="5.3818">
        <ele>303</ele>
        <time>2017-04-23T09:25:28Z</time>
      </trkpt>
      <trkpt lat="43.22297" lon="5.38184">
        <ele>303</ele>
        <time>2017-04-23T09:25:38Z</time>
      </trkpt>
      <trkpt lat="43.223" lon="5.38187">
        <ele>305</ele>
        <time>2017-04-23T09:25:47Z</time>
      </trkpt>
      <trkpt lat="43.22301" lon="5.38191">
        <ele>307</ele>
        <time>2017-04-23T09:25:57Z</time>
      </trkpt>
      <trkpt lat="43.22302" lon="5.38194">
        <ele>309</ele>
        <time>2017-04-23T09:26:07Z</time>
      </trkpt>
      <trkpt lat="43.22302" lon="5.38197">
        <ele>311</ele>
        <time>2017-04-23T09:26:16Z</time>
      </trkpt>
      <trkpt lat="43.22304" lon="5.38198">
        <ele>314</ele>
        <time>2017-04-23T09:26:25Z</time>
      </trkpt>
      <trkpt lat="43.22306" lon="5.38203">
        <ele>314</ele>
        <time>2017-04-23T09:26:37Z</time>
      </trkpt>
      <trkpt lat="43.22306" lon="5.38203">
        <ele>314</ele>
        <time>2017-04-23T09:26:51Z</time>
      </trkpt>
      <trkpt lat="43.22305" lon="5.38201">
        <ele>314</ele>
        <time>2017-04-23T09:27:08Z</time>
      </trkpt>
      <trkpt lat="43.22306" lon="5.38204">
        <ele>314</ele>
        <time>2017-04-23T09:27:23Z</time>
      </trkpt>
      <trkpt lat="43.22307" lon="5.38204">
        <ele>316</ele>
        <time>2017-04-23T09:27:58Z</time>
      </trkpt>
      <trkpt lat="43.22309" lon="5.38204">
        <ele>318</ele>
        <time>2017-04-23T09:28:16Z</time>
      </trkpt>
      <trkpt lat="43.22309" lon="5.38206">
        <ele>318</ele>
        <time>2017-04-23T09:29:09Z</time>
      </trkpt>
      <trkpt lat="43.22309" lon="5.38206">
        <ele>318</ele>
        <time>2017-04-23T09:29:24Z</time>
      </trkpt>
      <trkpt lat="43.22311" lon="5.38205">
        <ele>318</ele>
        <time>2017-04-23T09:30:14Z</time>
      </trkpt>
      <trkpt lat="43.22314" lon="5.38207">
        <ele>318</ele>
        <time>2017-04-23T09:30:25Z</time>
      </trkpt>
      <trkpt lat="43.22315" lon="5.3821">
        <ele>324</ele>
        <time>2017-04-23T09:30:42Z</time>
      </trkpt>
      <trkpt lat="43.22321" lon="5.38213">
        <ele>324</ele>
        <time>2017-04-23T09:30:52Z</time>
      </trkpt>
      <trkpt lat="43.22325" lon="5.38211">
        <ele>326</ele>
        <time>2017-04-23T09:31:02Z</time>
      </trkpt>
      <trkpt lat="43.22327" lon="5.38214">
        <ele>327</ele>
        <time>2017-04-23T09:31:13Z</time>
      </trkpt>
      <trkpt lat="43.22325" lon="5.38217">
        <ele>327</ele>
        <time>2017-04-23T09:31:22Z</time>
      </trkpt>
      <trkpt lat="43.22323" lon="5.38223">
        <ele>327</ele>
        <time>2017-04-23T09:31:36Z</time>
      </trkpt>
      <trkpt lat="43.22321" lon="5.38226">
        <ele>332</ele>
        <time>2017-04-23T09:31:45Z</time>
      </trkpt>
      <trkpt lat="43.22321" lon="5.38233">
        <ele>333</ele>
        <time>2017-04-23T09:31:54Z</time>
      </trkpt>
      <trkpt lat="43.22322" lon="5.38234">
        <ele>336</ele>
        <time>2017-04-23T09:32:14Z</time>
      </trkpt>
      <trkpt lat="43.22324" lon="5.38241">
        <ele>337</ele>
        <time>2017-04-23T09:32:26Z</time>
      </trkpt>
      <trkpt lat="43.22326" lon="5.38245">
        <ele>338</ele>
        <time>2017-04-23T09:32:35Z</time>
      </trkpt>
      <trkpt lat="43.22322" lon="5.38247">
        <ele>339</ele>
        <time>2017-04-23T09:32:44Z</time>
      </trkpt>
      <trkpt lat="43.22325" lon="5.38251">
        <ele>341</ele>
        <time>2017-04-23T09:32:54Z</time>
      </trkpt>
      <trkpt lat="43.22327" lon="5.38258">
        <ele>341</ele>
        <time>2017-04-23T09:33:03Z</time>
      </trkpt>
      <trkpt lat="43.22327" lon="5.38263">
        <ele>343</ele>
        <time>2017-04-23T09:33:14Z</time>
      </trkpt>
      <trkpt lat="43.22327" lon="5.38271">
        <ele>344</ele>
        <time>2017-04-23T09:33:25Z</time>
      </trkpt>
      <trkpt lat="43.22327" lon="5.38278">
        <ele>348</ele>
        <time>2017-04-23T09:33:36Z</time>
      </trkpt>
      <trkpt lat="43.22329" lon="5.38285">
        <ele>351</ele>
        <time>2017-04-23T09:33:46Z</time>
      </trkpt>
      <trkpt lat="43.22331" lon="5.38288">
        <ele>354</ele>
        <time>2017-04-23T09:33:55Z</time>
      </trkpt>
      <trkpt lat="43.22332" lon="5.38294">
        <ele>354</ele>
        <time>2017-04-23T09:34:09Z</time>
      </trkpt>
      <trkpt lat="43.22332" lon="5.38297">
        <ele>354</ele>
        <time>2017-04-23T09:34:18Z</time>
      </trkpt>
      <trkpt lat="43.22334" lon="5.38301">
        <ele>356</ele>
        <time>2017-04-23T09:34:27Z</time>
      </trkpt>
      <trkpt lat="43.22333" lon="5.38305">
        <ele>357</ele>
        <time>2017-04-23T09:34:38Z</time>
      </trkpt>
      <trkpt lat="43.22333" lon="5.38309">
        <ele>357</ele>
        <time>2017-04-23T09:34:51Z</time>
      </trkpt>
      <trkpt lat="43.22332" lon="5.38311">
        <ele>361</ele>
        <time>2017-04-23T09:35:01Z</time>
      </trkpt>
      <trkpt lat="43.22331" lon="5.38315">
        <ele>364</ele>
        <time>2017-04-23T09:35:11Z</time>
      </trkpt>
      <trkpt lat="43.22331" lon="5.3832">
        <ele>367</ele>
        <time>2017-04-23T09:35:21Z</time>
      </trkpt>
      <trkpt lat="43.22334" lon="5.38324">
        <ele>369</ele>
        <time>2017-04-23T09:35:32Z</time>
      </trkpt>
      <trkpt lat="43.22338" lon="5.38328">
        <ele>371</ele>
        <time>2017-04-23T09:35:42Z</time>
      </trkpt>
      <trkpt lat="43.22344" lon="5.38332">
        <ele>371</ele>
        <time>2017-04-23T09:35:52Z</time>
      </trkpt>
      <trkpt lat="43.22347" lon="5.38338">
        <ele>371</ele>
        <time>2017-04-23T09:36:01Z</time>
      </trkpt>
      <trkpt lat="43.22346" lon="5.38345">
        <ele>372</ele>
        <time>2017-04-23T09:36:12Z</time>
      </trkpt>
      <trkpt lat="43.22343" lon="5.38346">
        <ele>372</ele>
        <time>2017-04-23T09:36:21Z</time>
      </trkpt>
      <trkpt lat="43.22339" lon="5.38345">
        <ele>372</ele>
        <time>2017-04-23T09:36:38Z</time>
      </trkpt>
      <trkpt lat="43.22337" lon="5.38344">
        <ele>372</ele>
        <time>2017-04-23T09:36:49Z</time>
      </trkpt>
      <trkpt lat="43.22335" lon="5.38345">
        <ele>372</ele>
        <time>2017-04-23T09:37:08Z</time>
      </trkpt>
      <trkpt lat="43.22336" lon="5.38343">
        <ele>372</ele>
        <time>2017-04-23T09:37:26Z</time>
      </trkpt>
      <trkpt lat="43.22337" lon="5.38343">
        <ele>372</ele>
        <time>2017-04-23T09:37:48Z</time>
      </trkpt>
      <trkpt lat="43.22338" lon="5.38347">
        <ele>372</ele>
        <time>2017-04-23T09:37:59Z</time>
      </trkpt>
      <trkpt lat="43.22339" lon="5.38349">
        <ele>372</ele>
        <time>2017-04-23T09:39:26Z</time>
      </trkpt>
      <trkpt lat="43.22339" lon="5.38347">
        <ele>372</ele>
        <time>2017-04-23T09:40:06Z</time>
      </trkpt>
      <trkpt lat="43.2234" lon="5.38349">
        <ele>372</ele>
        <time>2017-04-23T09:40:18Z</time>
      </trkpt>
      <trkpt lat="43.22339" lon="5.3835">
        <ele>372</ele>
        <time>2017-04-23T09:40:40Z</time>
      </trkpt>
      <trkpt lat="43.22337" lon="5.38351">
        <ele>372</ele>
        <time>2017-04-23T09:41:03Z</time>
      </trkpt>
      <trkpt lat="43.22339" lon="5.38349">
        <ele>372</ele>
        <time>2017-04-23T09:41:20Z</time>
      </trkpt>
      <trkpt lat="43.22339" lon="5.38347">
        <ele>372</ele>
        <time>2017-04-23T09:41:43Z</time>
      </trkpt>
      <trkpt lat="43.22339" lon="5.38349">
        <ele>372</ele>
        <time>2017-04-23T09:42:16Z</time>
      </trkpt>
      <trkpt lat="43.22339" lon="5.38349">
        <ele>372</ele>
        <time>2017-04-23T09:42:53Z</time>
      </trkpt>
      <trkpt lat="43.22337" lon="5.38349">
        <ele>373</ele>
        <time>2017-04-23T09:43:29Z</time>
      </trkpt>
      <trkpt lat="43.22339" lon="5.38349">
        <ele>373</ele>
        <time>2017-04-23T09:44:39Z</time>
      </trkpt>
      <trkpt lat="43.22338" lon="5.38347">
        <ele>376</ele>
        <time>2017-04-23T09:46:40Z</time>
      </trkpt>
      <trkpt lat="43.22338" lon="5.38349">
        <ele>376</ele>
        <time>2017-04-23T09:47:02Z</time>
      </trkpt>
      <trkpt lat="43.22337" lon="5.38349">
        <ele>376</ele>
        <time>2017-04-23T09:47:11Z</time>
      </trkpt>
      <trkpt lat="43.22335" lon="5.38349">
        <ele>376</ele>
        <time>2017-04-23T09:47:26Z</time>
      </trkpt>
      <trkpt lat="43.22334" lon="5.3835">
        <ele>376</ele>
        <time>2017-04-23T09:47:47Z</time>
      </trkpt>
      <trkpt lat="43.22332" lon="5.38352">
        <ele>376</ele>
        <time>2017-04-23T09:48:13Z</time>
      </trkpt>
      <trkpt lat="43.22332" lon="5.3836">
        <ele>376</ele>
        <time>2017-04-23T09:48:22Z</time>
      </trkpt>
      <trkpt lat="43.22331" lon="5.38371">
        <ele>375</ele>
        <time>2017-04-23T09:48:32Z</time>
      </trkpt>
      <trkpt lat="43.22332" lon="5.38381">
        <ele>373</ele>
        <time>2017-04-23T09:48:43Z</time>
      </trkpt>
      <trkpt lat="43.22332" lon="5.38391">
        <ele>372</ele>
        <time>2017-04-23T09:48:53Z</time>
      </trkpt>
      <trkpt lat="43.22333" lon="5.38402">
        <ele>369</ele>
        <time>2017-04-23T09:49:03Z</time>
      </trkpt>
      <trkpt lat="43.22329" lon="5.38412">
        <ele>368</ele>
        <time>2017-04-23T09:49:12Z</time>
      </trkpt>
      <trkpt lat="43.22323" lon="5.38427">
        <ele>366</ele>
        <time>2017-04-23T09:49:22Z</time>
      </trkpt>
      <trkpt lat="43.22319" lon="5.38439">
        <ele>365</ele>
        <time>2017-04-23T09:49:31Z</time>
      </trkpt>
      <trkpt lat="43.22313" lon="5.38451">
        <ele>364</ele>
        <time>2017-04-23T09:49:41Z</time>
      </trkpt>
      <trkpt lat="43.22309" lon="5.38462">
        <ele>363</ele>
        <time>2017-04-23T09:49:51Z</time>
      </trkpt>
      <trkpt lat="43.22306" lon="5.38471">
        <ele>361</ele>
        <time>2017-04-23T09:50:00Z</time>
      </trkpt>
      <trkpt lat="43.223" lon="5.38483">
        <ele>359</ele>
        <time>2017-04-23T09:50:10Z</time>
      </trkpt>
      <trkpt lat="43.22295" lon="5.38493">
        <ele>358</ele>
        <time>2017-04-23T09:50:19Z</time>
      </trkpt>
      <trkpt lat="43.2229" lon="5.38504">
        <ele>357</ele>
        <time>2017-04-23T09:50:29Z</time>
      </trkpt>
      <trkpt lat="43.22284" lon="5.38515">
        <ele>357</ele>
        <time>2017-04-23T09:50:39Z</time>
      </trkpt>
      <trkpt lat="43.22277" lon="5.38524">
        <ele>357</ele>
        <time>2017-04-23T09:50:49Z</time>
      </trkpt>
      <trkpt lat="43.2227" lon="5.38534">
        <ele>357</ele>
        <time>2017-04-23T09:50:59Z</time>
      </trkpt>
      <trkpt lat="43.22265" lon="5.38544">
        <ele>356</ele>
        <time>2017-04-23T09:51:09Z</time>
      </trkpt>
      <trkpt lat="43.22263" lon="5.38556">
        <ele>356</ele>
        <time>2017-04-23T09:51:19Z</time>
      </trkpt>
      <trkpt lat="43.22258" lon="5.38566">
        <ele>354</ele>
        <time>2017-04-23T09:51:28Z</time>
      </trkpt>
      <trkpt lat="43.22255" lon="5.38577">
        <ele>354</ele>
        <time>2017-04-23T09:51:37Z</time>
      </trkpt>
      <trkpt lat="43.22248" lon="5.38587">
        <ele>353</ele>
        <time>2017-04-23T09:51:47Z</time>
      </trkpt>
      <trkpt lat="43.22243" lon="5.38597">
        <ele>353</ele>
        <time>2017-04-23T09:51:56Z</time>
      </trkpt>
      <trkpt lat="43.22238" lon="5.38608">
        <ele>353</ele>
        <time>2017-04-23T09:52:06Z</time>
      </trkpt>
      <trkpt lat="43.22234" lon="5.38617">
        <ele>352</ele>
        <time>2017-04-23T09:52:15Z</time>
      </trkpt>
      <trkpt lat="43.2223" lon="5.38625">
        <ele>351</ele>
        <time>2017-04-23T09:52:24Z</time>
      </trkpt>
      <trkpt lat="43.22224" lon="5.38635">
        <ele>350</ele>
        <time>2017-04-23T09:52:34Z</time>
      </trkpt>
      <trkpt lat="43.22216" lon="5.38642">
        <ele>350</ele>
        <time>2017-04-23T09:52:44Z</time>
      </trkpt>
      <trkpt lat="43.22207" lon="5.38651">
        <ele>349</ele>
        <time>2017-04-23T09:52:54Z</time>
      </trkpt>
      <trkpt lat="43.22198" lon="5.38655">
        <ele>348</ele>
        <time>2017-04-23T09:53:04Z</time>
      </trkpt>
      <trkpt lat="43.22189" lon="5.38663">
        <ele>348</ele>
        <time>2017-04-23T09:53:14Z</time>
      </trkpt>
      <trkpt lat="43.22183" lon="5.38671">
        <ele>347</ele>
        <time>2017-04-23T09:53:26Z</time>
      </trkpt>
      <trkpt lat="43.22181" lon="5.38673">
        <ele>346</ele>
        <time>2017-04-23T09:53:54Z</time>
      </trkpt>
      <trkpt lat="43.22179" lon="5.38676">
        <ele>346</ele>
        <time>2017-04-23T09:54:18Z</time>
      </trkpt>
      <trkpt lat="43.2218" lon="5.38678">
        <ele>346</ele>
        <time>2017-04-23T09:54:46Z</time>
      </trkpt>
      <trkpt lat="43.22179" lon="5.38679">
        <ele>346</ele>
        <time>2017-04-23T09:55:39Z</time>
      </trkpt>
      <trkpt lat="43.22175" lon="5.38685">
        <ele>346</ele>
        <time>2017-04-23T09:55:48Z</time>
      </trkpt>
      <trkpt lat="43.22171" lon="5.38691">
        <ele>346</ele>
        <time>2017-04-23T09:55:57Z</time>
      </trkpt>
      <trkpt lat="43.22164" lon="5.38697">
        <ele>346</ele>
        <time>2017-04-23T09:56:07Z</time>
      </trkpt>
      <trkpt lat="43.22157" lon="5.38701">
        <ele>346</ele>
        <time>2017-04-23T09:56:17Z</time>
      </trkpt>
      <trkpt lat="43.22149" lon="5.38705">
        <ele>346</ele>
        <time>2017-04-23T09:56:27Z</time>
      </trkpt>
      <trkpt lat="43.22143" lon="5.38713">
        <ele>346</ele>
        <time>2017-04-23T09:56:37Z</time>
      </trkpt>
      <trkpt lat="43.22138" lon="5.3872">
        <ele>346</ele>
        <time>2017-04-23T09:56:47Z</time>
      </trkpt>
      <trkpt lat="43.22131" lon="5.38724">
        <ele>346</ele>
        <time>2017-04-23T09:56:57Z</time>
      </trkpt>
      <trkpt lat="43.22126" lon="5.3873">
        <ele>346</ele>
        <time>2017-04-23T09:57:06Z</time>
      </trkpt>
      <trkpt lat="43.2212" lon="5.38736">
        <ele>346</ele>
        <time>2017-04-23T09:57:16Z</time>
      </trkpt>
      <trkpt lat="43.22113" lon="5.38741">
        <ele>346</ele>
        <time>2017-04-23T09:57:26Z</time>
      </trkpt>
      <trkpt lat="43.22105" lon="5.3875">
        <ele>346</ele>
        <time>2017-04-23T09:57:36Z</time>
      </trkpt>
      <trkpt lat="43.22097" lon="5.38756">
        <ele>346</ele>
        <time>2017-04-23T09:57:46Z</time>
      </trkpt>
      <trkpt lat="43.2209" lon="5.38761">
        <ele>346</ele>
        <time>2017-04-23T09:57:55Z</time>
      </trkpt>
      <trkpt lat="43.22081" lon="5.38763">
        <ele>346</ele>
        <time>2017-04-23T09:58:04Z</time>
      </trkpt>
      <trkpt lat="43.22072" lon="5.38764">
        <ele>346</ele>
        <time>2017-04-23T09:58:14Z</time>
      </trkpt>
      <trkpt lat="43.22063" lon="5.38767">
        <ele>346</ele>
        <time>2017-04-23T09:58:24Z</time>
      </trkpt>
      <trkpt lat="43.22054" lon="5.38768">
        <ele>346</ele>
        <time>2017-04-23T09:58:34Z</time>
      </trkpt>
      <trkpt lat="43.22046" lon="5.38764">
        <ele>348</ele>
        <time>2017-04-23T09:58:44Z</time>
      </trkpt>
      <trkpt lat="43.22037" lon="5.38765">
        <ele>348</ele>
        <time>2017-04-23T09:58:54Z</time>
      </trkpt>
      <trkpt lat="43.22028" lon="5.38769">
        <ele>348</ele>
        <time>2017-04-23T09:59:04Z</time>
      </trkpt>
      <trkpt lat="43.2202" lon="5.38771">
        <ele>349</ele>
        <time>2017-04-23T09:59:14Z</time>
      </trkpt>
      <trkpt lat="43.22012" lon="5.38771">
        <ele>349</ele>
        <time>2017-04-23T09:59:24Z</time>
      </trkpt>
      <trkpt lat="43.22004" lon="5.38773">
        <ele>349</ele>
        <time>2017-04-23T09:59:34Z</time>
      </trkpt>
      <trkpt lat="43.21997" lon="5.38778">
        <ele>349</ele>
        <time>2017-04-23T09:59:44Z</time>
      </trkpt>
      <trkpt lat="43.21991" lon="5.38785">
        <ele>350</ele>
        <time>2017-04-23T09:59:53Z</time>
      </trkpt>
      <trkpt lat="43.21984" lon="5.3879">
        <ele>350</ele>
        <time>2017-04-23T10:00:03Z</time>
      </trkpt>
      <trkpt lat="43.21977" lon="5.38797">
        <ele>353</ele>
        <time>2017-04-23T10:00:13Z</time>
      </trkpt>
      <trkpt lat="43.21971" lon="5.388">
        <ele>354</ele>
        <time>2017-04-23T10:00:22Z</time>
      </trkpt>
      <trkpt lat="43.21966" lon="5.38807">
        <ele>355</ele>
        <time>2017-04-23T10:00:31Z</time>
      </trkpt>
      <trkpt lat="43.21961" lon="5.38809">
        <ele>355</ele>
        <time>2017-04-23T10:00:41Z</time>
      </trkpt>
      <trkpt lat="43.21958" lon="5.38811">
        <ele>356</ele>
        <time>2017-04-23T10:00:51Z</time>
      </trkpt>
      <trkpt lat="43.21957" lon="5.38811">
        <ele>356</ele>
        <time>2017-04-23T10:01:00Z</time>
      </trkpt>
      <trkpt lat="43.21951" lon="5.3881">
        <ele>359</ele>
        <time>2017-04-23T10:01:09Z</time>
      </trkpt>
      <trkpt lat="43.21946" lon="5.38812">
        <ele>362</ele>
        <time>2017-04-23T10:01:18Z</time>
      </trkpt>
      <trkpt lat="43.21941" lon="5.38813">
        <ele>364</ele>
        <time>2017-04-23T10:01:27Z</time>
      </trkpt>
      <trkpt lat="43.21937" lon="5.38816">
        <ele>365</ele>
        <time>2017-04-23T10:01:36Z</time>
      </trkpt>
      <trkpt lat="43.21933" lon="5.38826">
        <ele>368</ele>
        <time>2017-04-23T10:01:46Z</time>
      </trkpt>
      <trkpt lat="43.2193" lon="5.38839">
        <ele>368</ele>
        <time>2017-04-23T10:01:56Z</time>
      </trkpt>
      <trkpt lat="43.21925" lon="5.38849">
        <ele>368</ele>
        <time>2017-04-23T10:02:06Z</time>
      </trkpt>
      <trkpt lat="43.21919" lon="5.38857">
        <ele>369</ele>
        <time>2017-04-23T10:02:16Z</time>
      </trkpt>
      <trkpt lat="43.21912" lon="5.38863">
        <ele>371</ele>
        <time>2017-04-23T10:02:25Z</time>
      </trkpt>
      <trkpt lat="43.21911" lon="5.38875">
        <ele>371</ele>
        <time>2017-04-23T10:02:35Z</time>
      </trkpt>
      <trkpt lat="43.21907" lon="5.38883">
        <ele>371</ele>
        <time>2017-04-23T10:02:45Z</time>
      </trkpt>
      <trkpt lat="43.21902" lon="5.38885">
        <ele>371</ele>
        <time>2017-04-23T10:02:54Z</time>
      </trkpt>
      <trkpt lat="43.21896" lon="5.38891">
        <ele>371</ele>
        <time>2017-04-23T10:03:03Z</time>
      </trkpt>
      <trkpt lat="43.2189" lon="5.38901">
        <ele>373</ele>
        <time>2017-04-23T10:03:13Z</time>
      </trkpt>
      <trkpt lat="43.21885" lon="5.3891">
        <ele>375</ele>
        <time>2017-04-23T10:03:23Z</time>
      </trkpt>
      <trkpt lat="43.21883" lon="5.38919">
        <ele>377</ele>
        <time>2017-04-23T10:03:32Z</time>
      </trkpt>
      <trkpt lat="43.21877" lon="5.38927">
        <ele>378</ele>
        <time>2017-04-23T10:03:41Z</time>
      </trkpt>
      <trkpt lat="43.21871" lon="5.38936">
        <ele>378</ele>
        <time>2017-04-23T10:03:50Z</time>
      </trkpt>
      <trkpt lat="43.21867" lon="5.38947">
        <ele>381</ele>
        <time>2017-04-23T10:04:00Z</time>
      </trkpt>
      <trkpt lat="43.2186" lon="5.38956">
        <ele>382</ele>
        <time>2017-04-23T10:04:10Z</time>
      </trkpt>
      <trkpt lat="43.21851" lon="5.3896">
        <ele>382</ele>
        <time>2017-04-23T10:04:20Z</time>
      </trkpt>
      <trkpt lat="43.21848" lon="5.38969">
        <ele>383</ele>
        <time>2017-04-23T10:04:30Z</time>
      </trkpt>
      <trkpt lat="43.21848" lon="5.3898">
        <ele>383</ele>
        <time>2017-04-23T10:04:39Z</time>
      </trkpt>
      <trkpt lat="43.21846" lon="5.38993">
        <ele>383</ele>
        <time>2017-04-23T10:04:48Z</time>
      </trkpt>
      <trkpt lat="43.21846" lon="5.39007">
        <ele>383</ele>
        <time>2017-04-23T10:04:58Z</time>
      </trkpt>
      <trkpt lat="43.21842" lon="5.3902">
        <ele>383</ele>
        <time>2017-04-23T10:05:07Z</time>
      </trkpt>
      <trkpt lat="43.21841" lon="5.39032">
        <ele>383</ele>
        <time>2017-04-23T10:05:16Z</time>
      </trkpt>
      <trkpt lat="43.21838" lon="5.39045">
        <ele>383</ele>
        <time>2017-04-23T10:05:25Z</time>
      </trkpt>
      <trkpt lat="43.21834" lon="5.39058">
        <ele>382</ele>
        <time>2017-04-23T10:05:35Z</time>
      </trkpt>
      <trkpt lat="43.21832" lon="5.39071">
        <ele>381</ele>
        <time>2017-04-23T10:05:44Z</time>
      </trkpt>
      <trkpt lat="43.2183" lon="5.39084">
        <ele>380</ele>
        <time>2017-04-23T10:05:53Z</time>
      </trkpt>
      <trkpt lat="43.21828" lon="5.39092">
        <ele>379</ele>
        <time>2017-04-23T10:06:04Z</time>
      </trkpt>
      <trkpt lat="43.2182" lon="5.39094">
        <ele>379</ele>
        <time>2017-04-23T10:06:14Z</time>
      </trkpt>
      <trkpt lat="43.21816" lon="5.39093">
        <ele>379</ele>
        <time>2017-04-23T10:06:33Z</time>
      </trkpt>
      <trkpt lat="43.21812" lon="5.39093">
        <ele>379</ele>
        <time>2017-04-23T10:06:42Z</time>
      </trkpt>
      <trkpt lat="43.21812" lon="5.3909">
        <ele>379</ele>
        <time>2017-04-23T10:07:00Z</time>
      </trkpt>
      <trkpt lat="43.21811" lon="5.39091">
        <ele>378</ele>
        <time>2017-04-23T10:07:19Z</time>
      </trkpt>
      <trkpt lat="43.21812" lon="5.39092">
        <ele>375</ele>
        <time>2017-04-23T10:07:37Z</time>
      </trkpt>
      <trkpt lat="43.21818" lon="5.39093">
        <ele>375</ele>
        <time>2017-04-23T10:07:46Z</time>
      </trkpt>
      <trkpt lat="43.21827" lon="5.39094">
        <ele>375</ele>
        <time>2017-04-23T10:07:57Z</time>
      </trkpt>
      <trkpt lat="43.21828" lon="5.39096">
        <ele>375</ele>
        <time>2017-04-23T10:08:18Z</time>
      </trkpt>
      <trkpt lat="43.2183" lon="5.39097">
        <ele>374</ele>
        <time>2017-04-23T10:08:29Z</time>
      </trkpt>
      <trkpt lat="43.21831" lon="5.39096">
        <ele>374</ele>
        <time>2017-04-23T10:08:39Z</time>
      </trkpt>
      <trkpt lat="43.21832" lon="5.39096">
        <ele>374</ele>
        <time>2017-04-23T10:08:55Z</time>
      </trkpt>
      <trkpt lat="43.21829" lon="5.39094">
        <ele>374</ele>
        <time>2017-04-23T10:09:05Z</time>
      </trkpt>
      <trkpt lat="43.21817" lon="5.39094">
        <ele>374</ele>
        <time>2017-04-23T10:09:15Z</time>
      </trkpt>
      <trkpt lat="43.21813" lon="5.39093">
        <ele>374</ele>
        <time>2017-04-23T10:09:30Z</time>
      </trkpt>
      <trkpt lat="43.21812" lon="5.39093">
        <ele>373</ele>
        <time>2017-04-23T10:09:40Z</time>
      </trkpt>
      <trkpt lat="43.21814" lon="5.39096">
        <ele>373</ele>
        <time>2017-04-23T10:09:50Z</time>
      </trkpt>
      <trkpt lat="43.21817" lon="5.39094">
        <ele>373</ele>
        <time>2017-04-23T10:10:00Z</time>
      </trkpt>
      <trkpt lat="43.21819" lon="5.39094">
        <ele>373</ele>
        <time>2017-04-23T10:10:15Z</time>
      </trkpt>
      <trkpt lat="43.21817" lon="5.39094">
        <ele>373</ele>
        <time>2017-04-23T10:10:24Z</time>
      </trkpt>
      <trkpt lat="43.21816" lon="5.39092">
        <ele>373</ele>
        <time>2017-04-23T10:10:39Z</time>
      </trkpt>
      <trkpt lat="43.21814" lon="5.39091">
        <ele>373</ele>
        <time>2017-04-23T10:10:48Z</time>
      </trkpt>
      <trkpt lat="43.21812" lon="5.39089">
        <ele>373</ele>
        <time>2017-04-23T10:10:57Z</time>
      </trkpt>
      <trkpt lat="43.21807" lon="5.39088">
        <ele>373</ele>
        <time>2017-04-23T10:11:07Z</time>
      </trkpt>
      <trkpt lat="43.21799" lon="5.39085">
        <ele>373</ele>
        <time>2017-04-23T10:11:17Z</time>
      </trkpt>
      <trkpt lat="43.21792" lon="5.39081">
        <ele>372</ele>
        <time>2017-04-23T10:11:26Z</time>
      </trkpt>
      <trkpt lat="43.21786" lon="5.39077">
        <ele>371</ele>
        <time>2017-04-23T10:11:35Z</time>
      </trkpt>
      <trkpt lat="43.21783" lon="5.39067">
        <ele>370</ele>
        <time>2017-04-23T10:11:44Z</time>
      </trkpt>
      <trkpt lat="43.21775" lon="5.3906">
        <ele>370</ele>
        <time>2017-04-23T10:11:54Z</time>
      </trkpt>
      <trkpt lat="43.21769" lon="5.39054">
        <ele>370</ele>
        <time>2017-04-23T10:12:03Z</time>
      </trkpt>
      <trkpt lat="43.21763" lon="5.39046">
        <ele>370</ele>
        <time>2017-04-23T10:12:12Z</time>
      </trkpt>
      <trkpt lat="43.21756" lon="5.39037">
        <ele>370</ele>
        <time>2017-04-23T10:12:22Z</time>
      </trkpt>
      <trkpt lat="43.21746" lon="5.39031">
        <ele>370</ele>
        <time>2017-04-23T10:12:32Z</time>
      </trkpt>
      <trkpt lat="43.21738" lon="5.39024">
        <ele>370</ele>
        <time>2017-04-23T10:12:41Z</time>
      </trkpt>
      <trkpt lat="43.21729" lon="5.39024">
        <ele>366</ele>
        <time>2017-04-23T10:12:50Z</time>
      </trkpt>
      <trkpt lat="43.2172" lon="5.39029">
        <ele>364</ele>
        <time>2017-04-23T10:12:59Z</time>
      </trkpt>
      <trkpt lat="43.21709" lon="5.39035">
        <ele>363</ele>
        <time>2017-04-23T10:13:08Z</time>
      </trkpt>
      <trkpt lat="43.21698" lon="5.39041">
        <ele>360</ele>
        <time>2017-04-23T10:13:18Z</time>
      </trkpt>
      <trkpt lat="43.21688" lon="5.39043">
        <ele>359</ele>
        <time>2017-04-23T10:13:27Z</time>
      </trkpt>
      <trkpt lat="43.21678" lon="5.39043">
        <ele>358</ele>
        <time>2017-04-23T10:13:36Z</time>
      </trkpt>
      <trkpt lat="43.2167" lon="5.39041">
        <ele>357</ele>
        <time>2017-04-23T10:13:45Z</time>
      </trkpt>
      <trkpt lat="43.2166" lon="5.3904">
        <ele>357</ele>
        <time>2017-04-23T10:13:54Z</time>
      </trkpt>
      <trkpt lat="43.21651" lon="5.39038">
        <ele>357</ele>
        <time>2017-04-23T10:14:04Z</time>
      </trkpt>
      <trkpt lat="43.21645" lon="5.39032">
        <ele>356</ele>
        <time>2017-04-23T10:14:13Z</time>
      </trkpt>
      <trkpt lat="43.21635" lon="5.3903">
        <ele>356</ele>
        <time>2017-04-23T10:14:23Z</time>
      </trkpt>
      <trkpt lat="43.21632" lon="5.39027">
        <ele>356</ele>
        <time>2017-04-23T10:14:34Z</time>
      </trkpt>
      <trkpt lat="43.21626" lon="5.39027">
        <ele>356</ele>
        <time>2017-04-23T10:14:44Z</time>
      </trkpt>
      <trkpt lat="43.21621" lon="5.39023">
        <ele>354</ele>
        <time>2017-04-23T10:14:55Z</time>
      </trkpt>
      <trkpt lat="43.21617" lon="5.3902">
        <ele>354</ele>
        <time>2017-04-23T10:15:04Z</time>
      </trkpt>
      <trkpt lat="43.21615" lon="5.39016">
        <ele>351</ele>
        <time>2017-04-23T10:15:14Z</time>
      </trkpt>
      <trkpt lat="43.21609" lon="5.39013">
        <ele>349</ele>
        <time>2017-04-23T10:15:25Z</time>
      </trkpt>
      <trkpt lat="43.21601" lon="5.3901">
        <ele>345</ele>
        <time>2017-04-23T10:15:35Z</time>
      </trkpt>
      <trkpt lat="43.21595" lon="5.39008">
        <ele>345</ele>
        <time>2017-04-23T10:15:45Z</time>
      </trkpt>
      <trkpt lat="43.21588" lon="5.39003">
        <ele>345</ele>
        <time>2017-04-23T10:15:55Z</time>
      </trkpt>
      <trkpt lat="43.21583" lon="5.38999">
        <ele>345</ele>
        <time>2017-04-23T10:16:05Z</time>
      </trkpt>
      <trkpt lat="43.21577" lon="5.38989">
        <ele>344</ele>
        <time>2017-04-23T10:16:15Z</time>
      </trkpt>
      <trkpt lat="43.21571" lon="5.3898">
        <ele>344</ele>
        <time>2017-04-23T10:16:27Z</time>
      </trkpt>
      <trkpt lat="43.21569" lon="5.38972">
        <ele>343</ele>
        <time>2017-04-23T10:16:36Z</time>
      </trkpt>
      <trkpt lat="43.21566" lon="5.38961">
        <ele>342</ele>
        <time>2017-04-23T10:16:46Z</time>
      </trkpt>
      <trkpt lat="43.21565" lon="5.38948">
        <ele>342</ele>
        <time>2017-04-23T10:16:57Z</time>
      </trkpt>
      <trkpt lat="43.21564" lon="5.38936">
        <ele>342</ele>
        <time>2017-04-23T10:17:06Z</time>
      </trkpt>
      <trkpt lat="43.21561" lon="5.38923">
        <ele>342</ele>
        <time>2017-04-23T10:17:16Z</time>
      </trkpt>
      <trkpt lat="43.21555" lon="5.38915">
        <ele>341</ele>
        <time>2017-04-23T10:17:25Z</time>
      </trkpt>
      <trkpt lat="43.21549" lon="5.38904">
        <ele>338</ele>
        <time>2017-04-23T10:17:34Z</time>
      </trkpt>
      <trkpt lat="43.21547" lon="5.38891">
        <ele>335</ele>
        <time>2017-04-23T10:17:43Z</time>
      </trkpt>
      <trkpt lat="43.21546" lon="5.38882">
        <ele>335</ele>
        <time>2017-04-23T10:17:52Z</time>
      </trkpt>
      <trkpt lat="43.21544" lon="5.38872">
        <ele>335</ele>
        <time>2017-04-23T10:18:03Z</time>
      </trkpt>
      <trkpt lat="43.21542" lon="5.38869">
        <ele>335</ele>
        <time>2017-04-23T10:18:13Z</time>
      </trkpt>
      <trkpt lat="43.21541" lon="5.38862">
        <ele>335</ele>
        <time>2017-04-23T10:18:23Z</time>
      </trkpt>
      <trkpt lat="43.21541" lon="5.3886">
        <ele>335</ele>
        <time>2017-04-23T10:18:34Z</time>
      </trkpt>
      <trkpt lat="43.21544" lon="5.38847">
        <ele>335</ele>
        <time>2017-04-23T10:18:44Z</time>
      </trkpt>
      <trkpt lat="43.21544" lon="5.38843">
        <ele>335</ele>
        <time>2017-04-23T10:19:00Z</time>
      </trkpt>
      <trkpt lat="43.21544" lon="5.3885">
        <ele>335</ele>
        <time>2017-04-23T10:19:10Z</time>
      </trkpt>
      <trkpt lat="43.21543" lon="5.38861">
        <ele>335</ele>
        <time>2017-04-23T10:19:20Z</time>
      </trkpt>
      <trkpt lat="43.21543" lon="5.38867">
        <ele>334</ele>
        <time>2017-04-23T10:19:38Z</time>
      </trkpt>
      <trkpt lat="43.21542" lon="5.38867">
        <ele>334</ele>
        <time>2017-04-23T10:19:51Z</time>
      </trkpt>
      <trkpt lat="43.21541" lon="5.38859">
        <ele>335</ele>
        <time>2017-04-23T10:20:00Z</time>
      </trkpt>
      <trkpt lat="43.21542" lon="5.38855">
        <ele>336</ele>
        <time>2017-04-23T10:20:10Z</time>
      </trkpt>
      <trkpt lat="43.21545" lon="5.38846">
        <ele>336</ele>
        <time>2017-04-23T10:20:20Z</time>
      </trkpt>
      <trkpt lat="43.21546" lon="5.38847">
        <ele>336</ele>
        <time>2017-04-23T10:20:34Z</time>
      </trkpt>
      <trkpt lat="43.21545" lon="5.38846">
        <ele>336</ele>
        <time>2017-04-23T10:20:43Z</time>
      </trkpt>
      <trkpt lat="43.21546" lon="5.38848">
        <ele>336</ele>
        <time>2017-04-23T10:20:54Z</time>
      </trkpt>
      <trkpt lat="43.21546" lon="5.38845">
        <ele>335</ele>
        <time>2017-04-23T10:21:17Z</time>
      </trkpt>
      <trkpt lat="43.21543" lon="5.38843">
        <ele>335</ele>
        <time>2017-04-23T10:21:28Z</time>
      </trkpt>
      <trkpt lat="43.21541" lon="5.38838">
        <ele>337</ele>
        <time>2017-04-23T10:21:38Z</time>
      </trkpt>
      <trkpt lat="43.21542" lon="5.38836">
        <ele>341</ele>
        <time>2017-04-23T10:22:09Z</time>
      </trkpt>
      <trkpt lat="43.21543" lon="5.3883">
        <ele>341</ele>
        <time>2017-04-23T10:22:18Z</time>
      </trkpt>
      <trkpt lat="43.21542" lon="5.3884">
        <ele>341</ele>
        <time>2017-04-23T10:22:28Z</time>
      </trkpt>
      <trkpt lat="43.2154" lon="5.38849">
        <ele>341</ele>
        <time>2017-04-23T10:22:37Z</time>
      </trkpt>
      <trkpt lat="43.2154" lon="5.3886">
        <ele>341</ele>
        <time>2017-04-23T10:22:47Z</time>
      </trkpt>
      <trkpt lat="43.21542" lon="5.38865">
        <ele>341</ele>
        <time>2017-04-23T10:22:57Z</time>
      </trkpt>
      <trkpt lat="43.21542" lon="5.3887">
        <ele>341</ele>
        <time>2017-04-23T10:23:06Z</time>
      </trkpt>
      <trkpt lat="43.21541" lon="5.38872">
        <ele>341</ele>
        <time>2017-04-23T10:23:19Z</time>
      </trkpt>
      <trkpt lat="43.2154" lon="5.38871">
        <ele>339</ele>
        <time>2017-04-23T10:24:27Z</time>
      </trkpt>
      <trkpt lat="43.21541" lon="5.3887">
        <ele>339</ele>
        <time>2017-04-23T10:26:14Z</time>
      </trkpt>
      <trkpt lat="43.21544" lon="5.38868">
        <ele>339</ele>
        <time>2017-04-23T10:26:50Z</time>
      </trkpt>
      <trkpt lat="43.21543" lon="5.38869">
        <ele>339</ele>
        <time>2017-04-23T10:27:14Z</time>
      </trkpt>
      <trkpt lat="43.21543" lon="5.38872">
        <ele>339</ele>
        <time>2017-04-23T10:27:58Z</time>
      </trkpt>
      <trkpt lat="43.21542" lon="5.38874">
        <ele>339</ele>
        <time>2017-04-23T10:28:12Z</time>
      </trkpt>
      <trkpt lat="43.21544" lon="5.38884">
        <ele>339</ele>
        <time>2017-04-23T10:28:23Z</time>
      </trkpt>
      <trkpt lat="43.21546" lon="5.38893">
        <ele>339</ele>
        <time>2017-04-23T10:28:32Z</time>
      </trkpt>
      <trkpt lat="43.21548" lon="5.38905">
        <ele>339</ele>
        <time>2017-04-23T10:28:42Z</time>
      </trkpt>
      <trkpt lat="43.21553" lon="5.38914">
        <ele>339</ele>
        <time>2017-04-23T10:28:52Z</time>
      </trkpt>
      <trkpt lat="43.21556" lon="5.38922">
        <ele>339</ele>
        <time>2017-04-23T10:29:04Z</time>
      </trkpt>
      <trkpt lat="43.21552" lon="5.38933">
        <ele>339</ele>
        <time>2017-04-23T10:29:14Z</time>
      </trkpt>
      <trkpt lat="43.21549" lon="5.38943">
        <ele>339</ele>
        <time>2017-04-23T10:29:24Z</time>
      </trkpt>
      <trkpt lat="43.21548" lon="5.38951">
        <ele>340</ele>
        <time>2017-04-23T10:29:33Z</time>
      </trkpt>
      <trkpt lat="43.21548" lon="5.38957">
        <ele>341</ele>
        <time>2017-04-23T10:30:00Z</time>
      </trkpt>
      <trkpt lat="43.21554" lon="5.38964">
        <ele>341</ele>
        <time>2017-04-23T10:30:12Z</time>
      </trkpt>
      <trkpt lat="43.21559" lon="5.3897">
        <ele>341</ele>
        <time>2017-04-23T10:30:23Z</time>
      </trkpt>
      <trkpt lat="43.21562" lon="5.38975">
        <ele>342</ele>
        <time>2017-04-23T10:30:34Z</time>
      </trkpt>
      <trkpt lat="43.21563" lon="5.38976">
        <ele>343</ele>
        <time>2017-04-23T10:30:43Z</time>
      </trkpt>
      <trkpt lat="43.21566" lon="5.38976">
        <ele>343</ele>
        <time>2017-04-23T10:30:54Z</time>
      </trkpt>
      <trkpt lat="43.21571" lon="5.38981">
        <ele>343</ele>
        <time>2017-04-23T10:31:03Z</time>
      </trkpt>
      <trkpt lat="43.21575" lon="5.38988">
        <ele>343</ele>
        <time>2017-04-23T10:31:12Z</time>
      </trkpt>
      <trkpt lat="43.21579" lon="5.38997">
        <ele>343</ele>
        <time>2017-04-23T10:31:23Z</time>
      </trkpt>
      <trkpt lat="43.21584" lon="5.39004">
        <ele>343</ele>
        <time>2017-04-23T10:31:33Z</time>
      </trkpt>
      <trkpt lat="43.2159" lon="5.39009">
        <ele>344</ele>
        <time>2017-04-23T10:31:44Z</time>
      </trkpt>
      <trkpt lat="43.21596" lon="5.39013">
        <ele>345</ele>
        <time>2017-04-23T10:31:55Z</time>
      </trkpt>
      <trkpt lat="43.21604" lon="5.39017">
        <ele>345</ele>
        <time>2017-04-23T10:32:05Z</time>
      </trkpt>
      <trkpt lat="43.21609" lon="5.39018">
        <ele>345</ele>
        <time>2017-04-23T10:32:14Z</time>
      </trkpt>
      <trkpt lat="43.21613" lon="5.3902">
        <ele>346</ele>
        <time>2017-04-23T10:32:23Z</time>
      </trkpt>
      <trkpt lat="43.21614" lon="5.39023">
        <ele>348</ele>
        <time>2017-04-23T10:32:32Z</time>
      </trkpt>
      <trkpt lat="43.21616" lon="5.39025">
        <ele>349</ele>
        <time>2017-04-23T10:33:05Z</time>
      </trkpt>
      <trkpt lat="43.21617" lon="5.39025">
        <ele>350</ele>
        <time>2017-04-23T10:33:54Z</time>
      </trkpt>
      <trkpt lat="43.21622" lon="5.39026">
        <ele>350</ele>
        <time>2017-04-23T10:34:03Z</time>
      </trkpt>
      <trkpt lat="43.21629" lon="5.39033">
        <ele>352</ele>
        <time>2017-04-23T10:34:13Z</time>
      </trkpt>
      <trkpt lat="43.21637" lon="5.39038">
        <ele>353</ele>
        <time>2017-04-23T10:34:23Z</time>
      </trkpt>
      <trkpt lat="43.21634" lon="5.3905">
        <ele>354</ele>
        <time>2017-04-23T10:34:33Z</time>
      </trkpt>
      <trkpt lat="43.21628" lon="5.39057">
        <ele>354</ele>
        <time>2017-04-23T10:34:43Z</time>
      </trkpt>
      <trkpt lat="43.21624" lon="5.39063">
        <ele>354</ele>
        <time>2017-04-23T10:34:59Z</time>
      </trkpt>
      <trkpt lat="43.21616" lon="5.39064">
        <ele>354</ele>
        <time>2017-04-23T10:35:10Z</time>
      </trkpt>
      <trkpt lat="43.21612" lon="5.39062">
        <ele>354</ele>
        <time>2017-04-23T10:35:19Z</time>
      </trkpt>
      <trkpt lat="43.21604" lon="5.39062">
        <ele>354</ele>
        <time>2017-04-23T10:35:28Z</time>
      </trkpt>
      <trkpt lat="43.21605" lon="5.3907">
        <ele>354</ele>
        <time>2017-04-23T10:35:37Z</time>
      </trkpt>
      <trkpt lat="43.21607" lon="5.3908">
        <ele>354</ele>
        <time>2017-04-23T10:35:48Z</time>
      </trkpt>
      <trkpt lat="43.21608" lon="5.39086">
        <ele>354</ele>
        <time>2017-04-23T10:35:57Z</time>
      </trkpt>
      <trkpt lat="43.2161" lon="5.39094">
        <ele>354</ele>
        <time>2017-04-23T10:36:07Z</time>
      </trkpt>
      <trkpt lat="43.21611" lon="5.39096">
        <ele>354</ele>
        <time>2017-04-23T10:36:25Z</time>
      </trkpt>
      <trkpt lat="43.21613" lon="5.39102">
        <ele>354</ele>
        <time>2017-04-23T10:36:34Z</time>
      </trkpt>
      <trkpt lat="43.21613" lon="5.39109">
        <ele>354</ele>
        <time>2017-04-23T10:36:45Z</time>
      </trkpt>
      <trkpt lat="43.2161" lon="5.39115">
        <ele>354</ele>
        <time>2017-04-23T10:36:57Z</time>
      </trkpt>
      <trkpt lat="43.21604" lon="5.39117">
        <ele>354</ele>
        <time>2017-04-23T10:37:08Z</time>
      </trkpt>
      <trkpt lat="43.21601" lon="5.39125">
        <ele>353</ele>
        <time>2017-04-23T10:37:17Z</time>
      </trkpt>
      <trkpt lat="43.21597" lon="5.39128">
        <ele>353</ele>
        <time>2017-04-23T10:37:28Z</time>
      </trkpt>
      <trkpt lat="43.21594" lon="5.39133">
        <ele>352</ele>
        <time>2017-04-23T10:37:42Z</time>
      </trkpt>
      <trkpt lat="43.21595" lon="5.39139">
        <ele>352</ele>
        <time>2017-04-23T10:37:55Z</time>
      </trkpt>
      <trkpt lat="43.21595" lon="5.39143">
        <ele>352</ele>
        <time>2017-04-23T10:38:09Z</time>
      </trkpt>
      <trkpt lat="43.21594" lon="5.39153">
        <ele>350</ele>
        <time>2017-04-23T10:38:19Z</time>
      </trkpt>
      <trkpt lat="43.21592" lon="5.39164">
        <ele>349</ele>
        <time>2017-04-23T10:38:28Z</time>
      </trkpt>
      <trkpt lat="43.21592" lon="5.39168">
        <ele>349</ele>
        <time>2017-04-23T10:38:44Z</time>
      </trkpt>
      <trkpt lat="43.21591" lon="5.39174">
        <ele>348</ele>
        <time>2017-04-23T10:38:55Z</time>
      </trkpt>
      <trkpt lat="43.21587" lon="5.39184">
        <ele>348</ele>
        <time>2017-04-23T10:39:05Z</time>
      </trkpt>
      <trkpt lat="43.21584" lon="5.39191">
        <ele>348</ele>
        <time>2017-04-23T10:39:14Z</time>
      </trkpt>
      <trkpt lat="43.21585" lon="5.39191">
        <ele>348</ele>
        <time>2017-04-23T10:39:50Z</time>
      </trkpt>
      <trkpt lat="43.21584" lon="5.39194">
        <ele>348</ele>
        <time>2017-04-23T10:40:00Z</time>
      </trkpt>
      <trkpt lat="43.21583" lon="5.39204">
        <ele>348</ele>
        <time>2017-04-23T10:40:09Z</time>
      </trkpt>
      <trkpt lat="43.21578" lon="5.3921">
        <ele>348</ele>
        <time>2017-04-23T10:40:18Z</time>
      </trkpt>
      <trkpt lat="43.21579" lon="5.3922">
        <ele>348</ele>
        <time>2017-04-23T10:40:27Z</time>
      </trkpt>
      <trkpt lat="43.21576" lon="5.39234">
        <ele>348</ele>
        <time>2017-04-23T10:40:38Z</time>
      </trkpt>
      <trkpt lat="43.21571" lon="5.39242">
        <ele>348</ele>
        <time>2017-04-23T10:40:47Z</time>
      </trkpt>
      <trkpt lat="43.21571" lon="5.3925">
        <ele>351</ele>
        <time>2017-04-23T10:41:01Z</time>
      </trkpt>
      <trkpt lat="43.21574" lon="5.39259">
        <ele>351</ele>
        <time>2017-04-23T10:41:11Z</time>
      </trkpt>
      <trkpt lat="43.21579" lon="5.39263">
        <ele>351</ele>
        <time>2017-04-23T10:41:21Z</time>
      </trkpt>
      <trkpt lat="43.21586" lon="5.39267">
        <ele>351</ele>
        <time>2017-04-23T10:41:31Z</time>
      </trkpt>
      <trkpt lat="43.21586" lon="5.39269">
        <ele>351</ele>
        <time>2017-04-23T10:41:43Z</time>
      </trkpt>
      <trkpt lat="43.21587" lon="5.39269">
        <ele>351</ele>
        <time>2017-04-23T10:41:56Z</time>
      </trkpt>
      <trkpt lat="43.21586" lon="5.39267">
        <ele>351</ele>
        <time>2017-04-23T10:42:39Z</time>
      </trkpt>
      <trkpt lat="43.21583" lon="5.39264">
        <ele>351</ele>
        <time>2017-04-23T10:42:48Z</time>
      </trkpt>
      <trkpt lat="43.21582" lon="5.39265">
        <ele>351</ele>
        <time>2017-04-23T10:43:17Z</time>
      </trkpt>
      <trkpt lat="43.21583" lon="5.39265">
        <ele>351</ele>
        <time>2017-04-23T10:43:50Z</time>
      </trkpt>
      <trkpt lat="43.21584" lon="5.39265">
        <ele>351</ele>
        <time>2017-04-23T10:43:59Z</time>
      </trkpt>
      <trkpt lat="43.21588" lon="5.39264">
        <ele>351</ele>
        <time>2017-04-23T10:44:16Z</time>
      </trkpt>
      <trkpt lat="43.21587" lon="5.39265">
        <ele>351</ele>
        <time>2017-04-23T10:44:38Z</time>
      </trkpt>
      <trkpt lat="43.21585" lon="5.3927">
        <ele>351</ele>
        <time>2017-04-23T10:44:49Z</time>
      </trkpt>
      <trkpt lat="43.21582" lon="5.39269">
        <ele>351</ele>
        <time>2017-04-23T10:44:59Z</time>
      </trkpt>
      <trkpt lat="43.21575" lon="5.39273">
        <ele>351</ele>
        <time>2017-04-23T10:45:10Z</time>
      </trkpt>
      <trkpt lat="43.21571" lon="5.39279">
        <ele>351</ele>
        <time>2017-04-23T10:45:19Z</time>
      </trkpt>
      <trkpt lat="43.21571" lon="5.3928">
        <ele>351</ele>
        <time>2017-04-23T10:45:36Z</time>
      </trkpt>
      <trkpt lat="43.21573" lon="5.39282">
        <ele>350</ele>
        <time>2017-04-23T10:45:46Z</time>
      </trkpt>
      <trkpt lat="43.21575" lon="5.39283">
        <ele>349</ele>
        <time>2017-04-23T10:45:55Z</time>
      </trkpt>
      <trkpt lat="43.21578" lon="5.39284">
        <ele>347</ele>
        <time>2017-04-23T10:46:09Z</time>
      </trkpt>
      <trkpt lat="43.2158" lon="5.39286">
        <ele>346</ele>
        <time>2017-04-23T10:46:23Z</time>
      </trkpt>
      <trkpt lat="43.21581" lon="5.39287">
        <ele>346</ele>
        <time>2017-04-23T10:46:33Z</time>
      </trkpt>
      <trkpt lat="43.21582" lon="5.39286">
        <ele>346</ele>
        <time>2017-04-23T10:46:44Z</time>
      </trkpt>
      <trkpt lat="43.21583" lon="5.39288">
        <ele>345</ele>
        <time>2017-04-23T10:46:58Z</time>
      </trkpt>
      <trkpt lat="43.21582" lon="5.39291">
        <ele>344</ele>
        <time>2017-04-23T10:47:45Z</time>
      </trkpt>
      <trkpt lat="43.21584" lon="5.39292">
        <ele>344</ele>
        <time>2017-04-23T10:47:56Z</time>
      </trkpt>
      <trkpt lat="43.21586" lon="5.39291">
        <ele>344</ele>
        <time>2017-04-23T10:48:16Z</time>
      </trkpt>
      <trkpt lat="43.21592" lon="5.39288">
        <ele>344</ele>
        <time>2017-04-23T10:48:27Z</time>
      </trkpt>
      <trkpt lat="43.216" lon="5.39285">
        <ele>344</ele>
        <time>2017-04-23T10:48:37Z</time>
      </trkpt>
      <trkpt lat="43.21606" lon="5.39285">
        <ele>344</ele>
        <time>2017-04-23T10:48:47Z</time>
      </trkpt>
      <trkpt lat="43.21608" lon="5.39286">
        <ele>344</ele>
        <time>2017-04-23T10:48:57Z</time>
      </trkpt>
      <trkpt lat="43.21607" lon="5.39286">
        <ele>344</ele>
        <time>2017-04-23T10:49:39Z</time>
      </trkpt>
      <trkpt lat="43.21607" lon="5.39288">
        <ele>344</ele>
        <time>2017-04-23T10:50:04Z</time>
      </trkpt>
      <trkpt lat="43.21608" lon="5.39287">
        <ele>344</ele>
        <time>2017-04-23T10:50:28Z</time>
      </trkpt>
      <trkpt lat="43.21607" lon="5.39286">
        <ele>342</ele>
        <time>2017-04-23T10:50:42Z</time>
      </trkpt>
      <trkpt lat="43.21606" lon="5.39287">
        <ele>342</ele>
        <time>2017-04-23T10:51:13Z</time>
      </trkpt>
      <trkpt lat="43.21606" lon="5.39286">
        <ele>342</ele>
        <time>2017-04-23T10:51:49Z</time>
      </trkpt>
      <trkpt lat="43.21606" lon="5.39287">
        <ele>342</ele>
        <time>2017-04-23T10:52:03Z</time>
      </trkpt>
      <trkpt lat="43.21605" lon="5.39287">
        <ele>342</ele>
        <time>2017-04-23T10:52:46Z</time>
      </trkpt>
      <trkpt lat="43.21606" lon="5.39287">
        <ele>342</ele>
        <time>2017-04-23T10:52:55Z</time>
      </trkpt>
      <trkpt lat="43.21604" lon="5.39286">
        <ele>342</ele>
        <time>2017-04-23T10:53:04Z</time>
      </trkpt>
      <trkpt lat="43.21603" lon="5.39287">
        <ele>342</ele>
        <time>2017-04-23T10:53:17Z</time>
      </trkpt>
      <trkpt lat="43.21604" lon="5.39285">
        <ele>342</ele>
        <time>2017-04-23T10:53:27Z</time>
      </trkpt>
      <trkpt lat="43.21603" lon="5.39279">
        <ele>342</ele>
        <time>2017-04-23T10:53:38Z</time>
      </trkpt>
      <trkpt lat="43.21603" lon="5.3927">
        <ele>342</ele>
        <time>2017-04-23T10:53:48Z</time>
      </trkpt>
      <trkpt lat="43.216" lon="5.39262">
        <ele>342</ele>
        <time>2017-04-23T10:53:58Z</time>
      </trkpt>
      <trkpt lat="43.21598" lon="5.39255">
        <ele>341</ele>
        <time>2017-04-23T10:54:07Z</time>
      </trkpt>
      <trkpt lat="43.21596" lon="5.39247">
        <ele>339</ele>
        <time>2017-04-23T10:54:17Z</time>
      </trkpt>
      <trkpt lat="43.21597" lon="5.39235">
        <ele>335</ele>
        <time>2017-04-23T10:54:28Z</time>
      </trkpt>
      <trkpt lat="43.21596" lon="5.39226">
        <ele>334</ele>
        <time>2017-04-23T10:54:38Z</time>
      </trkpt>
      <trkpt lat="43.21597" lon="5.39216">
        <ele>334</ele>
        <time>2017-04-23T10:54:48Z</time>
      </trkpt>
      <trkpt lat="43.216" lon="5.39209">
        <ele>334</ele>
        <time>2017-04-23T10:54:58Z</time>
      </trkpt>
      <trkpt lat="43.21605" lon="5.392">
        <ele>334</ele>
        <time>2017-04-23T10:55:07Z</time>
      </trkpt>
      <trkpt lat="43.2161" lon="5.39191">
        <ele>334</ele>
        <time>2017-04-23T10:55:17Z</time>
      </trkpt>
      <trkpt lat="43.2161" lon="5.39175">
        <ele>335</ele>
        <time>2017-04-23T10:55:27Z</time>
      </trkpt>
      <trkpt lat="43.21613" lon="5.39161">
        <ele>335</ele>
        <time>2017-04-23T10:55:38Z</time>
      </trkpt>
      <trkpt lat="43.21616" lon="5.39154">
        <ele>335</ele>
        <time>2017-04-23T10:55:48Z</time>
      </trkpt>
      <trkpt lat="43.21619" lon="5.39148">
        <ele>335</ele>
        <time>2017-04-23T10:55:58Z</time>
      </trkpt>
      <trkpt lat="43.21621" lon="5.39147">
        <ele>335</ele>
        <time>2017-04-23T10:56:07Z</time>
      </trkpt>
      <trkpt lat="43.21621" lon="5.39146">
        <ele>335</ele>
        <time>2017-04-23T10:56:22Z</time>
      </trkpt>
      <trkpt lat="43.21625" lon="5.39142">
        <ele>335</ele>
        <time>2017-04-23T10:56:32Z</time>
      </trkpt>
      <trkpt lat="43.21627" lon="5.39142">
        <ele>335</ele>
        <time>2017-04-23T10:56:44Z</time>
      </trkpt>
      <trkpt lat="43.21629" lon="5.39138">
        <ele>335</ele>
        <time>2017-04-23T10:56:54Z</time>
      </trkpt>
      <trkpt lat="43.21635" lon="5.39134">
        <ele>335</ele>
        <time>2017-04-23T10:57:05Z</time>
      </trkpt>
      <trkpt lat="43.2164" lon="5.39131">
        <ele>335</ele>
        <time>2017-04-23T10:57:15Z</time>
      </trkpt>
      <trkpt lat="43.21645" lon="5.39131">
        <ele>335</ele>
        <time>2017-04-23T10:57:24Z</time>
      </trkpt>
      <trkpt lat="43.21651" lon="5.39127">
        <ele>335</ele>
        <time>2017-04-23T10:57:33Z</time>
      </trkpt>
      <trkpt lat="43.21657" lon="5.39122">
        <ele>335</ele>
        <time>2017-04-23T10:57:43Z</time>
      </trkpt>
      <trkpt lat="43.21663" lon="5.39114">
        <ele>335</ele>
        <time>2017-04-23T10:57:53Z</time>
      </trkpt>
      <trkpt lat="43.21667" lon="5.39106">
        <ele>337</ele>
        <time>2017-04-23T10:58:03Z</time>
      </trkpt>
      <trkpt lat="43.21672" lon="5.39101">
        <ele>340</ele>
        <time>2017-04-23T10:58:12Z</time>
      </trkpt>
      <trkpt lat="43.2168" lon="5.39094">
        <ele>340</ele>
        <time>2017-04-23T10:58:22Z</time>
      </trkpt>
      <trkpt lat="43.21688" lon="5.39089">
        <ele>340</ele>
        <time>2017-04-23T10:58:33Z</time>
      </trkpt>
      <trkpt lat="43.21693" lon="5.39084">
        <ele>341</ele>
        <time>2017-04-23T10:58:43Z</time>
      </trkpt>
      <trkpt lat="43.217" lon="5.39083">
        <ele>343</ele>
        <time>2017-04-23T10:58:54Z</time>
      </trkpt>
      <trkpt lat="43.21704" lon="5.39081">
        <ele>347</ele>
        <time>2017-04-23T10:59:05Z</time>
      </trkpt>
      <trkpt lat="43.2171" lon="5.39076">
        <ele>348</ele>
        <time>2017-04-23T10:59:15Z</time>
      </trkpt>
      <trkpt lat="43.21718" lon="5.39073">
        <ele>348</ele>
        <time>2017-04-23T10:59:25Z</time>
      </trkpt>
      <trkpt lat="43.21727" lon="5.39069">
        <ele>349</ele>
        <time>2017-04-23T10:59:35Z</time>
      </trkpt>
      <trkpt lat="43.21733" lon="5.39065">
        <ele>351</ele>
        <time>2017-04-23T10:59:45Z</time>
      </trkpt>
      <trkpt lat="43.21738" lon="5.39065">
        <ele>351</ele>
        <time>2017-04-23T10:59:54Z</time>
      </trkpt>
      <trkpt lat="43.21745" lon="5.39067">
        <ele>356</ele>
        <time>2017-04-23T11:00:04Z</time>
      </trkpt>
      <trkpt lat="43.2175" lon="5.39072">
        <ele>357</ele>
        <time>2017-04-23T11:00:13Z</time>
      </trkpt>
      <trkpt lat="43.21755" lon="5.39075">
        <ele>362</ele>
        <time>2017-04-23T11:00:24Z</time>
      </trkpt>
      <trkpt lat="43.2176" lon="5.39076">
        <ele>363</ele>
        <time>2017-04-23T11:00:33Z</time>
      </trkpt>
      <trkpt lat="43.21765" lon="5.39075">
        <ele>363</ele>
        <time>2017-04-23T11:00:42Z</time>
      </trkpt>
      <trkpt lat="43.21768" lon="5.39066">
        <ele>364</ele>
        <time>2017-04-23T11:00:52Z</time>
      </trkpt>
      <trkpt lat="43.21772" lon="5.39062">
        <ele>366</ele>
        <time>2017-04-23T11:01:02Z</time>
      </trkpt>
      <trkpt lat="43.21777" lon="5.39061">
        <ele>368</ele>
        <time>2017-04-23T11:01:12Z</time>
      </trkpt>
      <trkpt lat="43.2178" lon="5.39067">
        <ele>368</ele>
        <time>2017-04-23T11:01:23Z</time>
      </trkpt>
      <trkpt lat="43.21783" lon="5.39077">
        <ele>369</ele>
        <time>2017-04-23T11:01:33Z</time>
      </trkpt>
      <trkpt lat="43.21787" lon="5.39082">
        <ele>370</ele>
        <time>2017-04-23T11:01:42Z</time>
      </trkpt>
      <trkpt lat="43.21793" lon="5.39088">
        <ele>370</ele>
        <time>2017-04-23T11:01:53Z</time>
      </trkpt>
      <trkpt lat="43.21798" lon="5.39097">
        <ele>370</ele>
        <time>2017-04-23T11:02:03Z</time>
      </trkpt>
      <trkpt lat="43.21803" lon="5.39107">
        <ele>370</ele>
        <time>2017-04-23T11:02:12Z</time>
      </trkpt>
      <trkpt lat="43.21808" lon="5.39116">
        <ele>370</ele>
        <time>2017-04-23T11:02:22Z</time>
      </trkpt>
      <trkpt lat="43.21809" lon="5.3912">
        <ele>370</ele>
        <time>2017-04-23T11:02:32Z</time>
      </trkpt>
      <trkpt lat="43.21812" lon="5.39126">
        <ele>370</ele>
        <time>2017-04-23T11:02:42Z</time>
      </trkpt>
      <trkpt lat="43.21817" lon="5.3913">
        <ele>370</ele>
        <time>2017-04-23T11:02:57Z</time>
      </trkpt>
      <trkpt lat="43.21818" lon="5.3913">
        <ele>370</ele>
        <time>2017-04-23T11:03:19Z</time>
      </trkpt>
      <trkpt lat="43.2182" lon="5.39127">
        <ele>370</ele>
        <time>2017-04-23T11:03:56Z</time>
      </trkpt>
      <trkpt lat="43.21822" lon="5.39119">
        <ele>370</ele>
        <time>2017-04-23T11:04:06Z</time>
      </trkpt>
      <trkpt lat="43.21826" lon="5.39108">
        <ele>370</ele>
        <time>2017-04-23T11:04:16Z</time>
      </trkpt>
      <trkpt lat="43.21831" lon="5.39098">
        <ele>370</ele>
        <time>2017-04-23T11:04:29Z</time>
      </trkpt>
      <trkpt lat="43.21832" lon="5.39098">
        <ele>371</ele>
        <time>2017-04-23T11:04:39Z</time>
      </trkpt>
      <trkpt lat="43.21835" lon="5.391">
        <ele>371</ele>
        <time>2017-04-23T11:04:48Z</time>
      </trkpt>
      <trkpt lat="43.21836" lon="5.39104">
        <ele>371</ele>
        <time>2017-04-23T11:05:08Z</time>
      </trkpt>
      <trkpt lat="43.21837" lon="5.39106">
        <ele>371</ele>
        <time>2017-04-23T11:05:31Z</time>
      </trkpt>
      <trkpt lat="43.21839" lon="5.39103">
        <ele>371</ele>
        <time>2017-04-23T11:05:43Z</time>
      </trkpt>
      <trkpt lat="43.21843" lon="5.39109">
        <ele>371</ele>
        <time>2017-04-23T11:05:54Z</time>
      </trkpt>
      <trkpt lat="43.21848" lon="5.39117">
        <ele>371</ele>
        <time>2017-04-23T11:06:04Z</time>
      </trkpt>
      <trkpt lat="43.21853" lon="5.39124">
        <ele>371</ele>
        <time>2017-04-23T11:06:14Z</time>
      </trkpt>
      <trkpt lat="43.21857" lon="5.39131">
        <ele>371</ele>
        <time>2017-04-23T11:06:23Z</time>
      </trkpt>
      <trkpt lat="43.21861" lon="5.39137">
        <ele>370</ele>
        <time>2017-04-23T11:06:32Z</time>
      </trkpt>
      <trkpt lat="43.21863" lon="5.39146">
        <ele>369</ele>
        <time>2017-04-23T11:06:43Z</time>
      </trkpt>
      <trkpt lat="43.21866" lon="5.39152">
        <ele>368</ele>
        <time>2017-04-23T11:06:52Z</time>
      </trkpt>
      <trkpt lat="43.21869" lon="5.39161">
        <ele>367</ele>
        <time>2017-04-23T11:07:02Z</time>
      </trkpt>
      <trkpt lat="43.21873" lon="5.39168">
        <ele>363</ele>
        <time>2017-04-23T11:07:12Z</time>
      </trkpt>
      <trkpt lat="43.2188" lon="5.39173">
        <ele>361</ele>
        <time>2017-04-23T11:07:23Z</time>
      </trkpt>
      <trkpt lat="43.21881" lon="5.39182">
        <ele>361</ele>
        <time>2017-04-23T11:07:33Z</time>
      </trkpt>
      <trkpt lat="43.21885" lon="5.39188">
        <ele>361</ele>
        <time>2017-04-23T11:07:42Z</time>
      </trkpt>
      <trkpt lat="43.21892" lon="5.39185">
        <ele>359</ele>
        <time>2017-04-23T11:07:53Z</time>
      </trkpt>
      <trkpt lat="43.21899" lon="5.39183">
        <ele>357</ele>
        <time>2017-04-23T11:08:03Z</time>
      </trkpt>
      <trkpt lat="43.21906" lon="5.39178">
        <ele>354</ele>
        <time>2017-04-23T11:08:13Z</time>
      </trkpt>
      <trkpt lat="43.21909" lon="5.39172">
        <ele>354</ele>
        <time>2017-04-23T11:08:22Z</time>
      </trkpt>
      <trkpt lat="43.21915" lon="5.39171">
        <ele>353</ele>
        <time>2017-04-23T11:08:32Z</time>
      </trkpt>
      <trkpt lat="43.21922" lon="5.39165">
        <ele>351</ele>
        <time>2017-04-23T11:08:42Z</time>
      </trkpt>
      <trkpt lat="43.21928" lon="5.39158">
        <ele>347</ele>
        <time>2017-04-23T11:08:53Z</time>
      </trkpt>
      <trkpt lat="43.21934" lon="5.39154">
        <ele>346</ele>
        <time>2017-04-23T11:09:03Z</time>
      </trkpt>
      <trkpt lat="43.21938" lon="5.39153">
        <ele>345</ele>
        <time>2017-04-23T11:09:13Z</time>
      </trkpt>
      <trkpt lat="43.21947" lon="5.39149">
        <ele>343</ele>
        <time>2017-04-23T11:09:23Z</time>
      </trkpt>
      <trkpt lat="43.21952" lon="5.39143">
        <ele>342</ele>
        <time>2017-04-23T11:09:32Z</time>
      </trkpt>
      <trkpt lat="43.21958" lon="5.39143">
        <ele>339</ele>
        <time>2017-04-23T11:09:43Z</time>
      </trkpt>
      <trkpt lat="43.21965" lon="5.39144">
        <ele>334</ele>
        <time>2017-04-23T11:09:53Z</time>
      </trkpt>
      <trkpt lat="43.2197" lon="5.39147">
        <ele>329</ele>
        <time>2017-04-23T11:10:03Z</time>
      </trkpt>
      <trkpt lat="43.21977" lon="5.39148">
        <ele>327</ele>
        <time>2017-04-23T11:10:13Z</time>
      </trkpt>
      <trkpt lat="43.21982" lon="5.39155">
        <ele>327</ele>
        <time>2017-04-23T11:10:22Z</time>
      </trkpt>
      <trkpt lat="43.21984" lon="5.39164">
        <ele>327</ele>
        <time>2017-04-23T11:10:31Z</time>
      </trkpt>
      <trkpt lat="43.21991" lon="5.39171">
        <ele>322</ele>
        <time>2017-04-23T11:10:42Z</time>
      </trkpt>
      <trkpt lat="43.22" lon="5.39176">
        <ele>321</ele>
        <time>2017-04-23T11:10:53Z</time>
      </trkpt>
      <trkpt lat="43.22007" lon="5.39181">
        <ele>321</ele>
        <time>2017-04-23T11:11:02Z</time>
      </trkpt>
      <trkpt lat="43.22016" lon="5.39185">
        <ele>319</ele>
        <time>2017-04-23T11:11:11Z</time>
      </trkpt>
      <trkpt lat="43.22021" lon="5.39184">
        <ele>319</ele>
        <time>2017-04-23T11:11:23Z</time>
      </trkpt>
      <trkpt lat="43.22023" lon="5.39185">
        <ele>322</ele>
        <time>2017-04-23T11:11:46Z</time>
      </trkpt>
      <trkpt lat="43.22031" lon="5.39184">
        <ele>322</ele>
        <time>2017-04-23T11:11:56Z</time>
      </trkpt>
      <trkpt lat="43.22036" lon="5.39179">
        <ele>322</ele>
        <time>2017-04-23T11:12:07Z</time>
      </trkpt>
      <trkpt lat="43.2204" lon="5.39179">
        <ele>322</ele>
        <time>2017-04-23T11:12:17Z</time>
      </trkpt>
      <trkpt lat="43.22043" lon="5.39179">
        <ele>322</ele>
        <time>2017-04-23T11:12:30Z</time>
      </trkpt>
      <trkpt lat="43.22048" lon="5.39179">
        <ele>322</ele>
        <time>2017-04-23T11:12:39Z</time>
      </trkpt>
      <trkpt lat="43.22049" lon="5.39183">
        <ele>322</ele>
        <time>2017-04-23T11:12:48Z</time>
      </trkpt>
      <trkpt lat="43.22047" lon="5.39191">
        <ele>322</ele>
        <time>2017-04-23T11:12:57Z</time>
      </trkpt>
      <trkpt lat="43.22048" lon="5.39201">
        <ele>322</ele>
        <time>2017-04-23T11:13:08Z</time>
      </trkpt>
      <trkpt lat="43.22048" lon="5.39211">
        <ele>322</ele>
        <time>2017-04-23T11:13:17Z</time>
      </trkpt>
      <trkpt lat="43.22052" lon="5.39212">
        <ele>322</ele>
        <time>2017-04-23T11:13:27Z</time>
      </trkpt>
      <trkpt lat="43.22055" lon="5.39213">
        <ele>323</ele>
        <time>2017-04-23T11:13:37Z</time>
      </trkpt>
      <trkpt lat="43.2206" lon="5.3921">
        <ele>324</ele>
        <time>2017-04-23T11:13:46Z</time>
      </trkpt>
      <trkpt lat="43.22065" lon="5.39204">
        <ele>324</ele>
        <time>2017-04-23T11:14:06Z</time>
      </trkpt>
      <trkpt lat="43.22069" lon="5.392">
        <ele>325</ele>
        <time>2017-04-23T11:14:15Z</time>
      </trkpt>
      <trkpt lat="43.22072" lon="5.39198">
        <ele>329</ele>
        <time>2017-04-23T11:14:25Z</time>
      </trkpt>
      <trkpt lat="43.22078" lon="5.39198">
        <ele>331</ele>
        <time>2017-04-23T11:14:35Z</time>
      </trkpt>
      <trkpt lat="43.22081" lon="5.39203">
        <ele>331</ele>
        <time>2017-04-23T11:14:44Z</time>
      </trkpt>
      <trkpt lat="43.22086" lon="5.39207">
        <ele>333</ele>
        <time>2017-04-23T11:14:54Z</time>
      </trkpt>
      <trkpt lat="43.22083" lon="5.39215">
        <ele>336</ele>
        <time>2017-04-23T11:15:04Z</time>
      </trkpt>
      <trkpt lat="43.22083" lon="5.3922">
        <ele>337</ele>
        <time>2017-04-23T11:15:13Z</time>
      </trkpt>
      <trkpt lat="43.22085" lon="5.39227">
        <ele>339</ele>
        <time>2017-04-23T11:15:23Z</time>
      </trkpt>
      <trkpt lat="43.22086" lon="5.39229">
        <ele>340</ele>
        <time>2017-04-23T11:15:35Z</time>
      </trkpt>
      <trkpt lat="43.2209" lon="5.39227">
        <ele>338</ele>
        <time>2017-04-23T11:15:53Z</time>
      </trkpt>
      <trkpt lat="43.22091" lon="5.39225">
        <ele>334</ele>
        <time>2017-04-23T11:16:03Z</time>
      </trkpt>
      <trkpt lat="43.2209" lon="5.39225">
        <ele>333</ele>
        <time>2017-04-23T11:16:44Z</time>
      </trkpt>
      <trkpt lat="43.22087" lon="5.39226">
        <ele>336</ele>
        <time>2017-04-23T11:17:01Z</time>
      </trkpt>
      <trkpt lat="43.22086" lon="5.39226">
        <ele>337</ele>
        <time>2017-04-23T11:17:52Z</time>
      </trkpt>
      <trkpt lat="43.22084" lon="5.39228">
        <ele>337</ele>
        <time>2017-04-23T11:18:03Z</time>
      </trkpt>
      <trkpt lat="43.22076" lon="5.39237">
        <ele>337</ele>
        <time>2017-04-23T11:18:13Z</time>
      </trkpt>
      <trkpt lat="43.22075" lon="5.39242">
        <ele>337</ele>
        <time>2017-04-23T11:18:23Z</time>
      </trkpt>
      <trkpt lat="43.22073" lon="5.39248">
        <ele>337</ele>
        <time>2017-04-23T11:18:32Z</time>
      </trkpt>
      <trkpt lat="43.22073" lon="5.39257">
        <ele>337</ele>
        <time>2017-04-23T11:18:43Z</time>
      </trkpt>
      <trkpt lat="43.22071" lon="5.39266">
        <ele>337</ele>
        <time>2017-04-23T11:18:52Z</time>
      </trkpt>
      <trkpt lat="43.22068" lon="5.39275">
        <ele>337</ele>
        <time>2017-04-23T11:19:02Z</time>
      </trkpt>
      <trkpt lat="43.22068" lon="5.39282">
        <ele>338</ele>
        <time>2017-04-23T11:19:14Z</time>
      </trkpt>
      <trkpt lat="43.22066" lon="5.39287">
        <ele>340</ele>
        <time>2017-04-23T11:19:23Z</time>
      </trkpt>
      <trkpt lat="43.22066" lon="5.39296">
        <ele>342</ele>
        <time>2017-04-23T11:19:33Z</time>
      </trkpt>
      <trkpt lat="43.22066" lon="5.39307">
        <ele>343</ele>
        <time>2017-04-23T11:19:43Z</time>
      </trkpt>
      <trkpt lat="43.22065" lon="5.39317">
        <ele>343</ele>
        <time>2017-04-23T11:19:52Z</time>
      </trkpt>
      <trkpt lat="43.22064" lon="5.39327">
        <ele>345</ele>
        <time>2017-04-23T11:20:01Z</time>
      </trkpt>
      <trkpt lat="43.22063" lon="5.39339">
        <ele>345</ele>
        <time>2017-04-23T11:20:11Z</time>
      </trkpt>
      <trkpt lat="43.22063" lon="5.39351">
        <ele>345</ele>
        <time>2017-04-23T11:20:20Z</time>
      </trkpt>
      <trkpt lat="43.2206" lon="5.39363">
        <ele>345</ele>
        <time>2017-04-23T11:20:30Z</time>
      </trkpt>
      <trkpt lat="43.22057" lon="5.39373">
        <ele>346</ele>
        <time>2017-04-23T11:20:39Z</time>
      </trkpt>
      <trkpt lat="43.22056" lon="5.39383">
        <ele>347</ele>
        <time>2017-04-23T11:20:49Z</time>
      </trkpt>
      <trkpt lat="43.22056" lon="5.39394">
        <ele>347</ele>
        <time>2017-04-23T11:20:59Z</time>
      </trkpt>
      <trkpt lat="43.22059" lon="5.39406">
        <ele>347</ele>
        <time>2017-04-23T11:21:08Z</time>
      </trkpt>
      <trkpt lat="43.2206" lon="5.3942">
        <ele>347</ele>
        <time>2017-04-23T11:21:17Z</time>
      </trkpt>
      <trkpt lat="43.22063" lon="5.39431">
        <ele>347</ele>
        <time>2017-04-23T11:21:26Z</time>
      </trkpt>
      <trkpt lat="43.22064" lon="5.39442">
        <ele>347</ele>
        <time>2017-04-23T11:21:36Z</time>
      </trkpt>
      <trkpt lat="43.22067" lon="5.39451">
        <ele>347</ele>
        <time>2017-04-23T11:21:47Z</time>
      </trkpt>
      <trkpt lat="43.22068" lon="5.39452">
        <ele>347</ele>
        <time>2017-04-23T11:21:56Z</time>
      </trkpt>
      <trkpt lat="43.22068" lon="5.39451">
        <ele>347</ele>
        <time>2017-04-23T11:22:22Z</time>
      </trkpt>
      <trkpt lat="43.22067" lon="5.39452">
        <ele>347</ele>
        <time>2017-04-23T11:22:44Z</time>
      </trkpt>
      <trkpt lat="43.22068" lon="5.39451">
        <ele>347</ele>
        <time>2017-04-23T11:23:24Z</time>
      </trkpt>
      <trkpt lat="43.22068" lon="5.39453">
        <ele>347</ele>
        <time>2017-04-23T11:23:35Z</time>
      </trkpt>
      <trkpt lat="43.22071" lon="5.39457">
        <ele>347</ele>
        <time>2017-04-23T11:23:47Z</time>
      </trkpt>
      <trkpt lat="43.22074" lon="5.39461">
        <ele>347</ele>
        <time>2017-04-23T11:23:57Z</time>
      </trkpt>
      <trkpt lat="43.22076" lon="5.39467">
        <ele>343</ele>
        <time>2017-04-23T11:24:10Z</time>
      </trkpt>
      <trkpt lat="43.22078" lon="5.39476">
        <ele>338</ele>
        <time>2017-04-23T11:24:20Z</time>
      </trkpt>
      <trkpt lat="43.22084" lon="5.39483">
        <ele>338</ele>
        <time>2017-04-23T11:24:30Z</time>
      </trkpt>
      <trkpt lat="43.22092" lon="5.39487">
        <ele>337</ele>
        <time>2017-04-23T11:24:40Z</time>
      </trkpt>
      <trkpt lat="43.221" lon="5.3949">
        <ele>335</ele>
        <time>2017-04-23T11:24:50Z</time>
      </trkpt>
      <trkpt lat="43.22108" lon="5.39493">
        <ele>331</ele>
        <time>2017-04-23T11:25:00Z</time>
      </trkpt>
      <trkpt lat="43.2212" lon="5.39499">
        <ele>329</ele>
        <time>2017-04-23T11:25:10Z</time>
      </trkpt>
      <trkpt lat="43.22128" lon="5.39503">
        <ele>326</ele>
        <time>2017-04-23T11:25:20Z</time>
      </trkpt>
      <trkpt lat="43.22135" lon="5.39506">
        <ele>325</ele>
        <time>2017-04-23T11:25:30Z</time>
      </trkpt>
      <trkpt lat="43.22141" lon="5.39508">
        <ele>323</ele>
        <time>2017-04-23T11:25:39Z</time>
      </trkpt>
      <trkpt lat="43.22148" lon="5.39515">
        <ele>323</ele>
        <time>2017-04-23T11:25:49Z</time>
      </trkpt>
      <trkpt lat="43.22155" lon="5.39519">
        <ele>321</ele>
        <time>2017-04-23T11:26:00Z</time>
      </trkpt>
      <trkpt lat="43.22155" lon="5.39521">
        <ele>321</ele>
        <time>2017-04-23T11:26:38Z</time>
      </trkpt>
      <trkpt lat="43.22156" lon="5.39524">
        <ele>320</ele>
        <time>2017-04-23T11:27:20Z</time>
      </trkpt>
      <trkpt lat="43.22158" lon="5.39527">
        <ele>320</ele>
        <time>2017-04-23T11:27:34Z</time>
      </trkpt>
      <trkpt lat="43.22161" lon="5.39529">
        <ele>319</ele>
        <time>2017-04-23T11:27:47Z</time>
      </trkpt>
      <trkpt lat="43.22165" lon="5.39532">
        <ele>319</ele>
        <time>2017-04-23T11:28:06Z</time>
      </trkpt>
      <trkpt lat="43.22165" lon="5.39531">
        <ele>316</ele>
        <time>2017-04-23T11:28:51Z</time>
      </trkpt>
      <trkpt lat="43.22167" lon="5.39531">
        <ele>315</ele>
        <time>2017-04-23T11:29:00Z</time>
      </trkpt>
      <trkpt lat="43.22169" lon="5.39532">
        <ele>311</ele>
        <time>2017-04-23T11:29:20Z</time>
      </trkpt>
      <trkpt lat="43.22171" lon="5.39534">
        <ele>309</ele>
        <time>2017-04-23T11:29:33Z</time>
      </trkpt>
      <trkpt lat="43.22174" lon="5.39537">
        <ele>308</ele>
        <time>2017-04-23T11:29:42Z</time>
      </trkpt>
      <trkpt lat="43.22173" lon="5.39537">
        <ele>305</ele>
        <time>2017-04-23T11:29:51Z</time>
      </trkpt>
      <trkpt lat="43.22175" lon="5.39536">
        <ele>300</ele>
        <time>2017-04-23T11:30:03Z</time>
      </trkpt>
      <trkpt lat="43.22179" lon="5.39542">
        <ele>300</ele>
        <time>2017-04-23T11:30:12Z</time>
      </trkpt>
      <trkpt lat="43.22178" lon="5.39544">
        <ele>300</ele>
        <time>2017-04-23T11:30:22Z</time>
      </trkpt>
      <trkpt lat="43.22182" lon="5.39551">
        <ele>300</ele>
        <time>2017-04-23T11:30:31Z</time>
      </trkpt>
      <trkpt lat="43.22185" lon="5.39556">
        <ele>298</ele>
        <time>2017-04-23T11:30:43Z</time>
      </trkpt>
      <trkpt lat="43.22188" lon="5.39562">
        <ele>295</ele>
        <time>2017-04-23T11:30:52Z</time>
      </trkpt>
      <trkpt lat="43.22189" lon="5.39574">
        <ele>295</ele>
        <time>2017-04-23T11:31:02Z</time>
      </trkpt>
      <trkpt lat="43.22194" lon="5.39581">
        <ele>295</ele>
        <time>2017-04-23T11:31:11Z</time>
      </trkpt>
      <trkpt lat="43.22198" lon="5.39585">
        <ele>295</ele>
        <time>2017-04-23T11:31:21Z</time>
      </trkpt>
      <trkpt lat="43.22199" lon="5.3959">
        <ele>295</ele>
        <time>2017-04-23T11:31:33Z</time>
      </trkpt>
      <trkpt lat="43.22205" lon="5.39588">
        <ele>295</ele>
        <time>2017-04-23T11:31:42Z</time>
      </trkpt>
      <trkpt lat="43.22208" lon="5.39588">
        <ele>295</ele>
        <time>2017-04-23T11:31:51Z</time>
      </trkpt>
      <trkpt lat="43.22199" lon="5.39587">
        <ele>287</ele>
        <time>2017-04-23T11:32:03Z</time>
      </trkpt>
      <trkpt lat="43.22196" lon="5.39584">
        <ele>280</ele>
        <time>2017-04-23T11:32:12Z</time>
      </trkpt>
      <trkpt lat="43.22197" lon="5.3958">
        <ele>277</ele>
        <time>2017-04-23T11:32:22Z</time>
      </trkpt>
      <trkpt lat="43.222" lon="5.39575">
        <ele>277</ele>
        <time>2017-04-23T11:32:32Z</time>
      </trkpt>
      <trkpt lat="43.22202" lon="5.39567">
        <ele>276</ele>
        <time>2017-04-23T11:32:43Z</time>
      </trkpt>
      <trkpt lat="43.22206" lon="5.39564">
        <ele>276</ele>
        <time>2017-04-23T11:32:53Z</time>
      </trkpt>
      <trkpt lat="43.22209" lon="5.39563">
        <ele>276</ele>
        <time>2017-04-23T11:33:03Z</time>
      </trkpt>
      <trkpt lat="43.22212" lon="5.39566">
        <ele>278</ele>
        <time>2017-04-23T11:33:13Z</time>
      </trkpt>
      <trkpt lat="43.22216" lon="5.39575">
        <ele>281</ele>
        <time>2017-04-23T11:33:22Z</time>
      </trkpt>
      <trkpt lat="43.22222" lon="5.39578">
        <ele>286</ele>
        <time>2017-04-23T11:33:35Z</time>
      </trkpt>
      <trkpt lat="43.22224" lon="5.39582">
        <ele>286</ele>
        <time>2017-04-23T11:33:44Z</time>
      </trkpt>
      <trkpt lat="43.22222" lon="5.39581">
        <ele>280</ele>
        <time>2017-04-23T11:33:56Z</time>
      </trkpt>
      <trkpt lat="43.22224" lon="5.39582">
        <ele>280</ele>
        <time>2017-04-23T11:34:06Z</time>
      </trkpt>
      <trkpt lat="43.22225" lon="5.39574">
        <ele>271</ele>
        <time>2017-04-23T11:34:16Z</time>
      </trkpt>
      <trkpt lat="43.22229" lon="5.3957">
        <ele>260</ele>
        <time>2017-04-23T11:34:27Z</time>
      </trkpt>
      <trkpt lat="43.22231" lon="5.39572">
        <ele>255</ele>
        <time>2017-04-23T11:34:40Z</time>
      </trkpt>
      <trkpt lat="43.22231" lon="5.39573">
        <ele>255</ele>
        <time>2017-04-23T11:34:54Z</time>
      </trkpt>
      <trkpt lat="43.22229" lon="5.3957">
        <ele>249</ele>
        <time>2017-04-23T11:35:04Z</time>
      </trkpt>
      <trkpt lat="43.22228" lon="5.39568">
        <ele>244</ele>
        <time>2017-04-23T11:35:16Z</time>
      </trkpt>
      <trkpt lat="43.22231" lon="5.39569">
        <ele>243</ele>
        <time>2017-04-23T11:35:25Z</time>
      </trkpt>
      <trkpt lat="43.22232" lon="5.39574">
        <ele>249</ele>
        <time>2017-04-23T11:35:36Z</time>
      </trkpt>
      <trkpt lat="43.22231" lon="5.39576">
        <ele>255</ele>
        <time>2017-04-23T11:35:53Z</time>
      </trkpt>
      <trkpt lat="43.2223" lon="5.39576">
        <ele>257</ele>
        <time>2017-04-23T11:36:05Z</time>
      </trkpt>
      <trkpt lat="43.22229" lon="5.39579">
        <ele>262</ele>
        <time>2017-04-23T11:36:18Z</time>
      </trkpt>
      <trkpt lat="43.22229" lon="5.39579">
        <ele>263</ele>
        <time>2017-04-23T11:36:40Z</time>
      </trkpt>
      <trkpt lat="43.22232" lon="5.39578">
        <ele>263</ele>
        <time>2017-04-23T11:37:02Z</time>
      </trkpt>
      <trkpt lat="43.22238" lon="5.39579">
        <ele>259</ele>
        <time>2017-04-23T11:37:12Z</time>
      </trkpt>
      <trkpt lat="43.22243" lon="5.39585">
        <ele>254</ele>
        <time>2017-04-23T11:37:22Z</time>
      </trkpt>
      <trkpt lat="43.22251" lon="5.39591">
        <ele>252</ele>
        <time>2017-04-23T11:37:33Z</time>
      </trkpt>
      <trkpt lat="43.2226" lon="5.396">
        <ele>251</ele>
        <time>2017-04-23T11:37:42Z</time>
      </trkpt>
      <trkpt lat="43.2227" lon="5.39614">
        <ele>251</ele>
        <time>2017-04-23T11:37:52Z</time>
      </trkpt>
      <trkpt lat="43.22276" lon="5.39625">
        <ele>251</ele>
        <time>2017-04-23T11:38:01Z</time>
      </trkpt>
      <trkpt lat="43.22281" lon="5.39639">
        <ele>251</ele>
        <time>2017-04-23T11:38:13Z</time>
      </trkpt>
      <trkpt lat="43.22289" lon="5.39646">
        <ele>251</ele>
        <time>2017-04-23T11:38:23Z</time>
      </trkpt>
      <trkpt lat="43.22298" lon="5.39645">
        <ele>252</ele>
        <time>2017-04-23T11:38:33Z</time>
      </trkpt>
      <trkpt lat="43.22306" lon="5.39644">
        <ele>252</ele>
        <time>2017-04-23T11:38:42Z</time>
      </trkpt>
      <trkpt lat="43.22316" lon="5.39641">
        <ele>253</ele>
        <time>2017-04-23T11:38:52Z</time>
      </trkpt>
      <trkpt lat="43.22324" lon="5.39634">
        <ele>253</ele>
        <time>2017-04-23T11:39:02Z</time>
      </trkpt>
      <trkpt lat="43.2233" lon="5.39627">
        <ele>256</ele>
        <time>2017-04-23T11:39:12Z</time>
      </trkpt>
      <trkpt lat="43.22336" lon="5.39619">
        <ele>256</ele>
        <time>2017-04-23T11:39:24Z</time>
      </trkpt>
      <trkpt lat="43.22344" lon="5.39616">
        <ele>256</ele>
        <time>2017-04-23T11:39:34Z</time>
      </trkpt>
      <trkpt lat="43.2235" lon="5.39611">
        <ele>256</ele>
        <time>2017-04-23T11:39:44Z</time>
      </trkpt>
      <trkpt lat="43.22359" lon="5.39611">
        <ele>258</ele>
        <time>2017-04-23T11:39:54Z</time>
      </trkpt>
      <trkpt lat="43.22368" lon="5.39609">
        <ele>260</ele>
        <time>2017-04-23T11:40:04Z</time>
      </trkpt>
      <trkpt lat="43.22375" lon="5.39605">
        <ele>261</ele>
        <time>2017-04-23T11:40:14Z</time>
      </trkpt>
      <trkpt lat="43.22382" lon="5.39599">
        <ele>262</ele>
        <time>2017-04-23T11:40:24Z</time>
      </trkpt>
      <trkpt lat="43.22391" lon="5.39595">
        <ele>262</ele>
        <time>2017-04-23T11:40:34Z</time>
      </trkpt>
      <trkpt lat="43.22399" lon="5.39591">
        <ele>264</ele>
        <time>2017-04-23T11:40:44Z</time>
      </trkpt>
      <trkpt lat="43.22405" lon="5.39584">
        <ele>266</ele>
        <time>2017-04-23T11:40:54Z</time>
      </trkpt>
      <trkpt lat="43.22413" lon="5.39581">
        <ele>267</ele>
        <time>2017-04-23T11:41:04Z</time>
      </trkpt>
      <trkpt lat="43.22415" lon="5.39571">
        <ele>268</ele>
        <time>2017-04-23T11:41:14Z</time>
      </trkpt>
      <trkpt lat="43.22417" lon="5.39565">
        <ele>271</ele>
        <time>2017-04-23T11:41:27Z</time>
      </trkpt>
      <trkpt lat="43.22418" lon="5.39563">
        <ele>271</ele>
        <time>2017-04-23T11:41:50Z</time>
      </trkpt>
      <trkpt lat="43.2242" lon="5.39561">
        <ele>271</ele>
        <time>2017-04-23T11:42:05Z</time>
      </trkpt>
      <trkpt lat="43.2242" lon="5.39559">
        <ele>271</ele>
        <time>2017-04-23T11:42:39Z</time>
      </trkpt>
      <trkpt lat="43.22423" lon="5.3955">
        <ele>271</ele>
        <time>2017-04-23T11:42:49Z</time>
      </trkpt>
      <trkpt lat="43.22425" lon="5.3954">
        <ele>271</ele>
        <time>2017-04-23T11:42:58Z</time>
      </trkpt>
      <trkpt lat="43.22426" lon="5.39529">
        <ele>272</ele>
        <time>2017-04-23T11:43:07Z</time>
      </trkpt>
      <trkpt lat="43.22427" lon="5.39515">
        <ele>272</ele>
        <time>2017-04-23T11:43:17Z</time>
      </trkpt>
      <trkpt lat="43.22429" lon="5.39504">
        <ele>272</ele>
        <time>2017-04-23T11:43:26Z</time>
      </trkpt>
      <trkpt lat="43.2243" lon="5.39488">
        <ele>272</ele>
        <time>2017-04-23T11:43:36Z</time>
      </trkpt>
      <trkpt lat="43.22432" lon="5.39477">
        <ele>272</ele>
        <time>2017-04-23T11:43:45Z</time>
      </trkpt>
      <trkpt lat="43.22432" lon="5.39468">
        <ele>272</ele>
        <time>2017-04-23T11:43:55Z</time>
      </trkpt>
      <trkpt lat="43.22432" lon="5.39459">
        <ele>270</ele>
        <time>2017-04-23T11:44:05Z</time>
      </trkpt>
      <trkpt lat="43.22434" lon="5.3945">
        <ele>269</ele>
        <time>2017-04-23T11:44:15Z</time>
      </trkpt>
      <trkpt lat="43.22435" lon="5.39441">
        <ele>266</ele>
        <time>2017-04-23T11:44:26Z</time>
      </trkpt>
      <trkpt lat="43.22438" lon="5.39434">
        <ele>264</ele>
        <time>2017-04-23T11:44:37Z</time>
      </trkpt>
      <trkpt lat="43.22441" lon="5.39426">
        <ele>262</ele>
        <time>2017-04-23T11:44:49Z</time>
      </trkpt>
      <trkpt lat="43.22445" lon="5.39422">
        <ele>261</ele>
        <time>2017-04-23T11:44:59Z</time>
      </trkpt>
      <trkpt lat="43.2245" lon="5.39416">
        <ele>260</ele>
        <time>2017-04-23T11:45:09Z</time>
      </trkpt>
      <trkpt lat="43.22452" lon="5.3941">
        <ele>257</ele>
        <time>2017-04-23T11:45:18Z</time>
      </trkpt>
      <trkpt lat="43.22457" lon="5.39402">
        <ele>256</ele>
        <time>2017-04-23T11:45:28Z</time>
      </trkpt>
      <trkpt lat="43.2246" lon="5.39391">
        <ele>255</ele>
        <time>2017-04-23T11:45:38Z</time>
      </trkpt>
      <trkpt lat="43.22459" lon="5.39379">
        <ele>252</ele>
        <time>2017-04-23T11:45:47Z</time>
      </trkpt>
      <trkpt lat="43.2246" lon="5.39366">
        <ele>250</ele>
        <time>2017-04-23T11:45:57Z</time>
      </trkpt>
      <trkpt lat="43.2246" lon="5.39358">
        <ele>247</ele>
        <time>2017-04-23T11:46:06Z</time>
      </trkpt>
      <trkpt lat="43.22466" lon="5.39349">
        <ele>246</ele>
        <time>2017-04-23T11:46:16Z</time>
      </trkpt>
      <trkpt lat="43.22474" lon="5.39344">
        <ele>245</ele>
        <time>2017-04-23T11:46:26Z</time>
      </trkpt>
      <trkpt lat="43.22475" lon="5.39336">
        <ele>243</ele>
        <time>2017-04-23T11:46:36Z</time>
      </trkpt>
      <trkpt lat="43.22478" lon="5.39328">
        <ele>240</ele>
        <time>2017-04-23T11:46:46Z</time>
      </trkpt>
      <trkpt lat="43.22481" lon="5.39318">
        <ele>240</ele>
        <time>2017-04-23T11:46:55Z</time>
      </trkpt>
      <trkpt lat="43.22482" lon="5.39304">
        <ele>240</ele>
        <time>2017-04-23T11:47:05Z</time>
      </trkpt>
      <trkpt lat="43.22481" lon="5.39297">
        <ele>238</ele>
        <time>2017-04-23T11:47:19Z</time>
      </trkpt>
      <trkpt lat="43.22482" lon="5.39298">
        <ele>238</ele>
        <time>2017-04-23T11:47:37Z</time>
      </trkpt>
      <trkpt lat="43.22482" lon="5.39291">
        <ele>238</ele>
        <time>2017-04-23T11:47:48Z</time>
      </trkpt>
      <trkpt lat="43.22482" lon="5.39284">
        <ele>236</ele>
        <time>2017-04-23T11:47:57Z</time>
      </trkpt>
      <trkpt lat="43.2248" lon="5.39275">
        <ele>234</ele>
        <time>2017-04-23T11:48:09Z</time>
      </trkpt>
      <trkpt lat="43.22478" lon="5.39269">
        <ele>231</ele>
        <time>2017-04-23T11:48:19Z</time>
      </trkpt>
      <trkpt lat="43.22478" lon="5.39262">
        <ele>228</ele>
        <time>2017-04-23T11:48:28Z</time>
      </trkpt>
      <trkpt lat="43.22481" lon="5.39255">
        <ele>227</ele>
        <time>2017-04-23T11:48:37Z</time>
      </trkpt>
      <trkpt lat="43.22478" lon="5.39248">
        <ele>226</ele>
        <time>2017-04-23T11:48:48Z</time>
      </trkpt>
      <trkpt lat="43.2248" lon="5.39238">
        <ele>223</ele>
        <time>2017-04-23T11:48:58Z</time>
      </trkpt>
      <trkpt lat="43.2248" lon="5.39229">
        <ele>220</ele>
        <time>2017-04-23T11:49:08Z</time>
      </trkpt>
      <trkpt lat="43.22478" lon="5.39221">
        <ele>218</ele>
        <time>2017-04-23T11:49:17Z</time>
      </trkpt>
      <trkpt lat="43.22478" lon="5.3921">
        <ele>214</ele>
        <time>2017-04-23T11:49:27Z</time>
      </trkpt>
      <trkpt lat="43.22477" lon="5.39199">
        <ele>209</ele>
        <time>2017-04-23T11:49:37Z</time>
      </trkpt>
      <trkpt lat="43.22479" lon="5.39188">
        <ele>208</ele>
        <time>2017-04-23T11:49:47Z</time>
      </trkpt>
      <trkpt lat="43.22473" lon="5.39189">
        <ele>208</ele>
        <time>2017-04-23T11:49:57Z</time>
      </trkpt>
      <trkpt lat="43.22464" lon="5.39188">
        <ele>208</ele>
        <time>2017-04-23T11:50:08Z</time>
      </trkpt>
      <trkpt lat="43.22455" lon="5.39188">
        <ele>206</ele>
        <time>2017-04-23T11:50:18Z</time>
      </trkpt>
      <trkpt lat="43.22446" lon="5.39184">
        <ele>203</ele>
        <time>2017-04-23T11:50:28Z</time>
      </trkpt>
      <trkpt lat="43.22436" lon="5.39181">
        <ele>201</ele>
        <time>2017-04-23T11:50:37Z</time>
      </trkpt>
      <trkpt lat="43.22425" lon="5.39175">
        <ele>199</ele>
        <time>2017-04-23T11:50:48Z</time>
      </trkpt>
      <trkpt lat="43.2242" lon="5.39171">
        <ele>197</ele>
        <time>2017-04-23T11:50:58Z</time>
      </trkpt>
      <trkpt lat="43.22416" lon="5.39167">
        <ele>194</ele>
        <time>2017-04-23T11:51:08Z</time>
      </trkpt>
      <trkpt lat="43.22409" lon="5.39164">
        <ele>189</ele>
        <time>2017-04-23T11:51:19Z</time>
      </trkpt>
      <trkpt lat="43.22407" lon="5.39161">
        <ele>186</ele>
        <time>2017-04-23T11:51:32Z</time>
      </trkpt>
      <trkpt lat="43.22404" lon="5.39151">
        <ele>187</ele>
        <time>2017-04-23T11:51:42Z</time>
      </trkpt>
      <trkpt lat="43.22404" lon="5.39151">
        <ele>189</ele>
        <time>2017-04-23T11:51:54Z</time>
      </trkpt>
      <trkpt lat="43.22406" lon="5.39155">
        <ele>189</ele>
        <time>2017-04-23T11:52:03Z</time>
      </trkpt>
      <trkpt lat="43.22407" lon="5.39157">
        <ele>189</ele>
        <time>2017-04-23T11:52:13Z</time>
      </trkpt>
      <trkpt lat="43.22406" lon="5.39152">
        <ele>189</ele>
        <time>2017-04-23T11:52:29Z</time>
      </trkpt>
      <trkpt lat="43.22411" lon="5.39149">
        <ele>189</ele>
        <time>2017-04-23T11:52:39Z</time>
      </trkpt>
      <trkpt lat="43.22411" lon="5.39145">
        <ele>186</ele>
        <time>2017-04-23T11:52:51Z</time>
      </trkpt>
      <trkpt lat="43.2241" lon="5.39143">
        <ele>179</ele>
        <time>2017-04-23T11:53:02Z</time>
      </trkpt>
      <trkpt lat="43.22414" lon="5.39138">
        <ele>178</ele>
        <time>2017-04-23T11:53:14Z</time>
      </trkpt>
      <trkpt lat="43.22413" lon="5.39132">
        <ele>175</ele>
        <time>2017-04-23T11:53:24Z</time>
      </trkpt>
      <trkpt lat="43.22409" lon="5.39123">
        <ele>172</ele>
        <time>2017-04-23T11:53:35Z</time>
      </trkpt>
      <trkpt lat="43.22406" lon="5.39117">
        <ele>168</ele>
        <time>2017-04-23T11:53:44Z</time>
      </trkpt>
      <trkpt lat="43.22407" lon="5.3911">
        <ele>166</ele>
        <time>2017-04-23T11:53:54Z</time>
      </trkpt>
      <trkpt lat="43.22404" lon="5.39101">
        <ele>163</ele>
        <time>2017-04-23T11:54:04Z</time>
      </trkpt>
      <trkpt lat="43.22403" lon="5.39096">
        <ele>163</ele>
        <time>2017-04-23T11:54:14Z</time>
      </trkpt>
      <trkpt lat="43.224" lon="5.39087">
        <ele>160</ele>
        <time>2017-04-23T11:54:23Z</time>
      </trkpt>
      <trkpt lat="43.22399" lon="5.3908">
        <ele>157</ele>
        <time>2017-04-23T11:54:32Z</time>
      </trkpt>
      <trkpt lat="43.224" lon="5.39072">
        <ele>154</ele>
        <time>2017-04-23T11:54:42Z</time>
      </trkpt>
      <trkpt lat="43.22393" lon="5.39058">
        <ele>149</ele>
        <time>2017-04-23T11:54:57Z</time>
      </trkpt>
      <trkpt lat="43.22393" lon="5.39047">
        <ele>149</ele>
        <time>2017-04-23T11:55:08Z</time>
      </trkpt>
      <trkpt lat="43.22398" lon="5.39036">
        <ele>149</ele>
        <time>2017-04-23T11:55:17Z</time>
      </trkpt>
      <trkpt lat="43.224" lon="5.39032">
        <ele>146</ele>
        <time>2017-04-23T11:55:33Z</time>
      </trkpt>
      <trkpt lat="43.22403" lon="5.39033">
        <ele>139</ele>
        <time>2017-04-23T11:55:47Z</time>
      </trkpt>
      <trkpt lat="43.22401" lon="5.39035">
        <ele>133</ele>
        <time>2017-04-23T11:55:57Z</time>
      </trkpt>
      <trkpt lat="43.22401" lon="5.39037">
        <ele>138</ele>
        <time>2017-04-23T11:56:07Z</time>
      </trkpt>
      <trkpt lat="43.22401" lon="5.39033">
        <ele>141</ele>
        <time>2017-04-23T11:56:21Z</time>
      </trkpt>
      <trkpt lat="43.22402" lon="5.39037">
        <ele>143</ele>
        <time>2017-04-23T11:56:33Z</time>
      </trkpt>
      <trkpt lat="43.22402" lon="5.39036">
        <ele>142</ele>
        <time>2017-04-23T11:56:54Z</time>
      </trkpt>
      <trkpt lat="43.22401" lon="5.39035">
        <ele>148</ele>
        <time>2017-04-23T11:57:09Z</time>
      </trkpt>
      <trkpt lat="43.22397" lon="5.39033">
        <ele>148</ele>
        <time>2017-04-23T11:57:18Z</time>
      </trkpt>
      <trkpt lat="43.22395" lon="5.39035">
        <ele>148</ele>
        <time>2017-04-23T11:57:27Z</time>
      </trkpt>
      <trkpt lat="43.22399" lon="5.39031">
        <ele>147</ele>
        <time>2017-04-23T11:57:43Z</time>
      </trkpt>
      <trkpt lat="43.22399" lon="5.39033">
        <ele>142</ele>
        <time>2017-04-23T11:57:54Z</time>
      </trkpt>
      <trkpt lat="43.22401" lon="5.39033">
        <ele>142</ele>
        <time>2017-04-23T11:58:20Z</time>
      </trkpt>
      <trkpt lat="43.22401" lon="5.39033">
        <ele>142</ele>
        <time>2017-04-23T11:58:32Z</time>
      </trkpt>
      <trkpt lat="43.22404" lon="5.39039">
        <ele>135</ele>
        <time>2017-04-23T11:58:43Z</time>
      </trkpt>
      <trkpt lat="43.22411" lon="5.39044">
        <ele>127</ele>
        <time>2017-04-23T11:58:53Z</time>
      </trkpt>
      <trkpt lat="43.22417" lon="5.39047">
        <ele>121</ele>
        <time>2017-04-23T11:59:02Z</time>
      </trkpt>
      <trkpt lat="43.22423" lon="5.3905">
        <ele>121</ele>
        <time>2017-04-23T11:59:12Z</time>
      </trkpt>
      <trkpt lat="43.22428" lon="5.3905">
        <ele>126</ele>
        <time>2017-04-23T11:59:22Z</time>
      </trkpt>
      <trkpt lat="43.2243" lon="5.39054">
        <ele>137</ele>
        <time>2017-04-23T11:59:34Z</time>
      </trkpt>
      <trkpt lat="43.22432" lon="5.39051">
        <ele>145</ele>
        <time>2017-04-23T11:59:43Z</time>
      </trkpt>
      <trkpt lat="43.22433" lon="5.39051">
        <ele>148</ele>
        <time>2017-04-23T11:59:52Z</time>
      </trkpt>
      <trkpt lat="43.22435" lon="5.39049">
        <ele>155</ele>
        <time>2017-04-23T12:00:01Z</time>
      </trkpt>
      <trkpt lat="43.22441" lon="5.39051">
        <ele>161</ele>
        <time>2017-04-23T12:00:11Z</time>
      </trkpt>
      <trkpt lat="43.22447" lon="5.39049">
        <ele>165</ele>
        <time>2017-04-23T12:00:20Z</time>
      </trkpt>
      <trkpt lat="43.22456" lon="5.3905">
        <ele>162</ele>
        <time>2017-04-23T12:00:29Z</time>
      </trkpt>
      <trkpt lat="43.22459" lon="5.39053">
        <ele>150</ele>
        <time>2017-04-23T12:00:39Z</time>
      </trkpt>
      <trkpt lat="43.22464" lon="5.39057">
        <ele>143</ele>
        <time>2017-04-23T12:00:48Z</time>
      </trkpt>
      <trkpt lat="43.22464" lon="5.39059">
        <ele>140</ele>
        <time>2017-04-23T12:00:57Z</time>
      </trkpt>
      <trkpt lat="43.2247" lon="5.39046">
        <ele>142</ele>
        <time>2017-04-23T12:01:08Z</time>
      </trkpt>
      <trkpt lat="43.22471" lon="5.39041">
        <ele>150</ele>
        <time>2017-04-23T12:01:24Z</time>
      </trkpt>
      <trkpt lat="43.2247" lon="5.39039">
        <ele>151</ele>
        <time>2017-04-23T12:01:40Z</time>
      </trkpt>
      <trkpt lat="43.22469" lon="5.39037">
        <ele>153</ele>
        <time>2017-04-23T12:01:53Z</time>
      </trkpt>
      <trkpt lat="43.22469" lon="5.3903">
        <ele>156</ele>
        <time>2017-04-23T12:02:03Z</time>
      </trkpt>
      <trkpt lat="43.22466" lon="5.39031">
        <ele>156</ele>
        <time>2017-04-23T12:02:13Z</time>
      </trkpt>
      <trkpt lat="43.22462" lon="5.39033">
        <ele>156</ele>
        <time>2017-04-23T12:02:22Z</time>
      </trkpt>
      <trkpt lat="43.22463" lon="5.39032">
        <ele>156</ele>
        <time>2017-04-23T12:02:40Z</time>
      </trkpt>
      <trkpt lat="43.22463" lon="5.39032">
        <ele>160</ele>
        <time>2017-04-23T12:02:56Z</time>
      </trkpt>
      <trkpt lat="43.22467" lon="5.3903">
        <ele>160</ele>
        <time>2017-04-23T12:03:05Z</time>
      </trkpt>
      <trkpt lat="43.22467" lon="5.39027">
        <ele>160</ele>
        <time>2017-04-23T12:03:14Z</time>
      </trkpt>
      <trkpt lat="43.22466" lon="5.39029">
        <ele>161</ele>
        <time>2017-04-23T12:03:27Z</time>
      </trkpt>
      <trkpt lat="43.22469" lon="5.39024">
        <ele>168</ele>
        <time>2017-04-23T12:03:38Z</time>
      </trkpt>
      <trkpt lat="43.2247" lon="5.39024">
        <ele>170</ele>
        <time>2017-04-23T12:03:47Z</time>
      </trkpt>
      <trkpt lat="43.22467" lon="5.39023">
        <ele>169</ele>
        <time>2017-04-23T12:03:56Z</time>
      </trkpt>
      <trkpt lat="43.22464" lon="5.39022">
        <ele>163</ele>
        <time>2017-04-23T12:04:07Z</time>
      </trkpt>
      <trkpt lat="43.22466" lon="5.39032">
        <ele>163</ele>
        <time>2017-04-23T12:04:17Z</time>
      </trkpt>
      <trkpt lat="43.22473" lon="5.3904">
        <ele>165</ele>
        <time>2017-04-23T12:04:28Z</time>
      </trkpt>
      <trkpt lat="43.22484" lon="5.39038">
        <ele>169</ele>
        <time>2017-04-23T12:04:37Z</time>
      </trkpt>
      <trkpt lat="43.22495" lon="5.3904">
        <ele>162</ele>
        <time>2017-04-23T12:04:48Z</time>
      </trkpt>
      <trkpt lat="43.22507" lon="5.39041">
        <ele>152</ele>
        <time>2017-04-23T12:04:58Z</time>
      </trkpt>
      <trkpt lat="43.22519" lon="5.39045">
        <ele>146</ele>
        <time>2017-04-23T12:05:08Z</time>
      </trkpt>
      <trkpt lat="43.2253" lon="5.39045">
        <ele>139</ele>
        <time>2017-04-23T12:05:17Z</time>
      </trkpt>
      <trkpt lat="43.22543" lon="5.39046">
        <ele>131</ele>
        <time>2017-04-23T12:05:27Z</time>
      </trkpt>
      <trkpt lat="43.22555" lon="5.39048">
        <ele>130</ele>
        <time>2017-04-23T12:05:37Z</time>
      </trkpt>
      <trkpt lat="43.22565" lon="5.39046">
        <ele>129</ele>
        <time>2017-04-23T12:05:47Z</time>
      </trkpt>
      <trkpt lat="43.22576" lon="5.39048">
        <ele>129</ele>
        <time>2017-04-23T12:05:58Z</time>
      </trkpt>
      <trkpt lat="43.22586" lon="5.39047">
        <ele>129</ele>
        <time>2017-04-23T12:06:07Z</time>
      </trkpt>
      <trkpt lat="43.22594" lon="5.39046">
        <ele>129</ele>
        <time>2017-04-23T12:06:18Z</time>
      </trkpt>
      <trkpt lat="43.22604" lon="5.39051">
        <ele>129</ele>
        <time>2017-04-23T12:06:27Z</time>
      </trkpt>
      <trkpt lat="43.22614" lon="5.39057">
        <ele>130</ele>
        <time>2017-04-23T12:06:40Z</time>
      </trkpt>
      <trkpt lat="43.22623" lon="5.39054">
        <ele>131</ele>
        <time>2017-04-23T12:06:50Z</time>
      </trkpt>
      <trkpt lat="43.22634" lon="5.39055">
        <ele>131</ele>
        <time>2017-04-23T12:07:00Z</time>
      </trkpt>
      <trkpt lat="43.22645" lon="5.39053">
        <ele>132</ele>
        <time>2017-04-23T12:07:10Z</time>
      </trkpt>
      <trkpt lat="43.22655" lon="5.39052">
        <ele>134</ele>
        <time>2017-04-23T12:07:19Z</time>
      </trkpt>
      <trkpt lat="43.22664" lon="5.39052">
        <ele>135</ele>
        <time>2017-04-23T12:07:28Z</time>
      </trkpt>
      <trkpt lat="43.22674" lon="5.39048">
        <ele>139</ele>
        <time>2017-04-23T12:07:37Z</time>
      </trkpt>
      <trkpt lat="43.22679" lon="5.39049">
        <ele>142</ele>
        <time>2017-04-23T12:07:46Z</time>
      </trkpt>
      <trkpt lat="43.22687" lon="5.39049">
        <ele>145</ele>
        <time>2017-04-23T12:07:55Z</time>
      </trkpt>
      <trkpt lat="43.227" lon="5.39043">
        <ele>135</ele>
        <time>2017-04-23T12:08:04Z</time>
      </trkpt>
      <trkpt lat="43.22712" lon="5.39043">
        <ele>123</ele>
        <time>2017-04-23T12:08:13Z</time>
      </trkpt>
      <trkpt lat="43.22723" lon="5.39041">
        <ele>111</ele>
        <time>2017-04-23T12:08:22Z</time>
      </trkpt>
      <trkpt lat="43.22733" lon="5.39039">
        <ele>98</ele>
        <time>2017-04-23T12:08:33Z</time>
      </trkpt>
      <trkpt lat="43.22735" lon="5.39034">
        <ele>89</ele>
        <time>2017-04-23T12:08:42Z</time>
      </trkpt>
      <trkpt lat="43.22735" lon="5.39032">
        <ele>84</ele>
        <time>2017-04-23T12:08:55Z</time>
      </trkpt>
      <trkpt lat="43.22729" lon="5.39036">
        <ele>84</ele>
        <time>2017-04-23T12:09:05Z</time>
      </trkpt>
      <trkpt lat="43.22723" lon="5.39036">
        <ele>84</ele>
        <time>2017-04-23T12:09:14Z</time>
      </trkpt>
      <trkpt lat="43.22718" lon="5.3904">
        <ele>89</ele>
        <time>2017-04-23T12:09:25Z</time>
      </trkpt>
      <trkpt lat="43.22719" lon="5.39036">
        <ele>93</ele>
        <time>2017-04-23T12:09:37Z</time>
      </trkpt>
      <trkpt lat="43.22719" lon="5.39032">
        <ele>93</ele>
        <time>2017-04-23T12:09:46Z</time>
      </trkpt>
      <trkpt lat="43.22725" lon="5.39035">
        <ele>93</ele>
        <time>2017-04-23T12:09:56Z</time>
      </trkpt>
      <trkpt lat="43.22726" lon="5.39039">
        <ele>93</ele>
        <time>2017-04-23T12:10:05Z</time>
      </trkpt>
      <trkpt lat="43.22731" lon="5.39045">
        <ele>93</ele>
        <time>2017-04-23T12:10:14Z</time>
      </trkpt>
      <trkpt lat="43.22733" lon="5.39051">
        <ele>96</ele>
        <time>2017-04-23T12:10:23Z</time>
      </trkpt>
      <trkpt lat="43.22739" lon="5.39063">
        <ele>98</ele>
        <time>2017-04-23T12:10:33Z</time>
      </trkpt>
      <trkpt lat="43.22744" lon="5.39066">
        <ele>98</ele>
        <time>2017-04-23T12:10:43Z</time>
      </trkpt>
      <trkpt lat="43.22739" lon="5.39065">
        <ele>98</ele>
        <time>2017-04-23T12:10:52Z</time>
      </trkpt>
      <trkpt lat="43.22741" lon="5.39077">
        <ele>97</ele>
        <time>2017-04-23T12:11:02Z</time>
      </trkpt>
      <trkpt lat="43.22751" lon="5.39086">
        <ele>96</ele>
        <time>2017-04-23T12:11:11Z</time>
      </trkpt>
      <trkpt lat="43.22762" lon="5.39097">
        <ele>96</ele>
        <time>2017-04-23T12:11:20Z</time>
      </trkpt>
      <trkpt lat="43.22771" lon="5.39108">
        <ele>96</ele>
        <time>2017-04-23T12:11:29Z</time>
      </trkpt>
      <trkpt lat="43.22779" lon="5.39115">
        <ele>96</ele>
        <time>2017-04-23T12:11:38Z</time>
      </trkpt>
      <trkpt lat="43.22789" lon="5.39119">
        <ele>96</ele>
        <time>2017-04-23T12:11:47Z</time>
      </trkpt>
      <trkpt lat="43.22797" lon="5.39125">
        <ele>96</ele>
        <time>2017-04-23T12:11:57Z</time>
      </trkpt>
      <trkpt lat="43.22808" lon="5.39129">
        <ele>96</ele>
        <time>2017-04-23T12:12:07Z</time>
      </trkpt>
      <trkpt lat="43.22816" lon="5.39131">
        <ele>96</ele>
        <time>2017-04-23T12:12:17Z</time>
      </trkpt>
      <trkpt lat="43.22825" lon="5.39134">
        <ele>96</ele>
        <time>2017-04-23T12:12:26Z</time>
      </trkpt>
      <trkpt lat="43.22832" lon="5.39138">
        <ele>96</ele>
        <time>2017-04-23T12:12:35Z</time>
      </trkpt>
      <trkpt lat="43.22838" lon="5.3914">
        <ele>96</ele>
        <time>2017-04-23T12:12:44Z</time>
      </trkpt>
      <trkpt lat="43.22847" lon="5.39144">
        <ele>96</ele>
        <time>2017-04-23T12:12:53Z</time>
      </trkpt>
      <trkpt lat="43.22857" lon="5.39146">
        <ele>96</ele>
        <time>2017-04-23T12:13:02Z</time>
      </trkpt>
      <trkpt lat="43.22868" lon="5.39149">
        <ele>96</ele>
        <time>2017-04-23T12:13:12Z</time>
      </trkpt>
      <trkpt lat="43.22877" lon="5.39153">
        <ele>98</ele>
        <time>2017-04-23T12:13:22Z</time>
      </trkpt>
      <trkpt lat="43.22886" lon="5.39157">
        <ele>99</ele>
        <time>2017-04-23T12:13:31Z</time>
      </trkpt>
      <trkpt lat="43.22897" lon="5.39164">
        <ele>99</ele>
        <time>2017-04-23T12:13:40Z</time>
      </trkpt>
      <trkpt lat="43.22904" lon="5.39174">
        <ele>99</ele>
        <time>2017-04-23T12:13:50Z</time>
      </trkpt>
      <trkpt lat="43.22912" lon="5.39185">
        <ele>99</ele>
        <time>2017-04-23T12:14:00Z</time>
      </trkpt>
      <trkpt lat="43.2292" lon="5.39195">
        <ele>98</ele>
        <time>2017-04-23T12:14:09Z</time>
      </trkpt>
      <trkpt lat="43.22926" lon="5.39202">
        <ele>97</ele>
        <time>2017-04-23T12:14:18Z</time>
      </trkpt>
      <trkpt lat="43.22934" lon="5.39211">
        <ele>96</ele>
        <time>2017-04-23T12:14:27Z</time>
      </trkpt>
      <trkpt lat="43.22942" lon="5.39222">
        <ele>96</ele>
        <time>2017-04-23T12:14:37Z</time>
      </trkpt>
      <trkpt lat="43.22949" lon="5.39233">
        <ele>96</ele>
        <time>2017-04-23T12:14:47Z</time>
      </trkpt>
      <trkpt lat="43.22956" lon="5.39245">
        <ele>96</ele>
        <time>2017-04-23T12:14:58Z</time>
      </trkpt>
      <trkpt lat="43.22961" lon="5.39252">
        <ele>96</ele>
        <time>2017-04-23T12:15:07Z</time>
      </trkpt>
      <trkpt lat="43.22968" lon="5.39263">
        <ele>96</ele>
        <time>2017-04-23T12:15:16Z</time>
      </trkpt>
      <trkpt lat="43.22973" lon="5.39272">
        <ele>96</ele>
        <time>2017-04-23T12:15:25Z</time>
      </trkpt>
      <trkpt lat="43.22982" lon="5.39282">
        <ele>96</ele>
        <time>2017-04-23T12:15:35Z</time>
      </trkpt>
      <trkpt lat="43.2299" lon="5.39289">
        <ele>96</ele>
        <time>2017-04-23T12:15:44Z</time>
      </trkpt>
      <trkpt lat="43.22997" lon="5.39298">
        <ele>93</ele>
        <time>2017-04-23T12:15:54Z</time>
      </trkpt>
      <trkpt lat="43.23003" lon="5.39306">
        <ele>90</ele>
        <time>2017-04-23T12:16:03Z</time>
      </trkpt>
      <trkpt lat="43.23012" lon="5.39316">
        <ele>89</ele>
        <time>2017-04-23T12:16:13Z</time>
      </trkpt>
      <trkpt lat="43.23019" lon="5.39326">
        <ele>89</ele>
        <time>2017-04-23T12:16:22Z</time>
      </trkpt>
      <trkpt lat="43.23027" lon="5.39339">
        <ele>89</ele>
        <time>2017-04-23T12:16:33Z</time>
      </trkpt>
      <trkpt lat="43.23033" lon="5.39351">
        <ele>89</ele>
        <time>2017-04-23T12:16:42Z</time>
      </trkpt>
      <trkpt lat="43.2304" lon="5.39364">
        <ele>89</ele>
        <time>2017-04-23T12:16:52Z</time>
      </trkpt>
      <trkpt lat="43.23045" lon="5.39374">
        <ele>89</ele>
        <time>2017-04-23T12:17:01Z</time>
      </trkpt>
      <trkpt lat="43.2305" lon="5.39387">
        <ele>89</ele>
        <time>2017-04-23T12:17:11Z</time>
      </trkpt>
      <trkpt lat="43.23054" lon="5.39398">
        <ele>89</ele>
        <time>2017-04-23T12:17:20Z</time>
      </trkpt>
      <trkpt lat="43.23058" lon="5.3941">
        <ele>89</ele>
        <time>2017-04-23T12:17:29Z</time>
      </trkpt>
      <trkpt lat="43.23061" lon="5.39422">
        <ele>87</ele>
        <time>2017-04-23T12:17:38Z</time>
      </trkpt>
      <trkpt lat="43.23064" lon="5.39433">
        <ele>86</ele>
        <time>2017-04-23T12:17:48Z</time>
      </trkpt>
      <trkpt lat="43.23064" lon="5.39441">
        <ele>84</ele>
        <time>2017-04-23T12:17:57Z</time>
      </trkpt>
      <trkpt lat="43.23071" lon="5.3945">
        <ele>83</ele>
        <time>2017-04-23T12:18:07Z</time>
      </trkpt>
      <trkpt lat="43.23079" lon="5.39459">
        <ele>82</ele>
        <time>2017-04-23T12:18:16Z</time>
      </trkpt>
      <trkpt lat="43.23086" lon="5.3947">
        <ele>80</ele>
        <time>2017-04-23T12:18:26Z</time>
      </trkpt>
      <trkpt lat="43.23092" lon="5.39481">
        <ele>80</ele>
        <time>2017-04-23T12:18:36Z</time>
      </trkpt>
      <trkpt lat="43.23099" lon="5.39492">
        <ele>80</ele>
        <time>2017-04-23T12:18:46Z</time>
      </trkpt>
      <trkpt lat="43.23102" lon="5.39499">
        <ele>80</ele>
        <time>2017-04-23T12:18:57Z</time>
      </trkpt>
      <trkpt lat="43.23102" lon="5.39503">
        <ele>79</ele>
        <time>2017-04-23T12:19:09Z</time>
      </trkpt>
      <trkpt lat="43.23103" lon="5.39505">
        <ele>72</ele>
        <time>2017-04-23T12:19:23Z</time>
      </trkpt>
      <trkpt lat="43.23101" lon="5.39504">
        <ele>67</ele>
        <time>2017-04-23T12:19:39Z</time>
      </trkpt>
      <trkpt lat="43.23103" lon="5.39509">
        <ele>67</ele>
        <time>2017-04-23T12:19:48Z</time>
      </trkpt>
      <trkpt lat="43.2311" lon="5.39519">
        <ele>67</ele>
        <time>2017-04-23T12:19:57Z</time>
      </trkpt>
      <trkpt lat="43.23116" lon="5.39531">
        <ele>67</ele>
        <time>2017-04-23T12:20:07Z</time>
      </trkpt>
      <trkpt lat="43.23122" lon="5.39543">
        <ele>68</ele>
        <time>2017-04-23T12:20:16Z</time>
      </trkpt>
      <trkpt lat="43.23127" lon="5.39558">
        <ele>68</ele>
        <time>2017-04-23T12:20:25Z</time>
      </trkpt>
      <trkpt lat="43.23133" lon="5.39572">
        <ele>68</ele>
        <time>2017-04-23T12:20:35Z</time>
      </trkpt>
      <trkpt lat="43.23135" lon="5.39581">
        <ele>68</ele>
        <time>2017-04-23T12:20:51Z</time>
      </trkpt>
      <trkpt lat="43.23135" lon="5.39582">
        <ele>72</ele>
        <time>2017-04-23T12:21:12Z</time>
      </trkpt>
      <trkpt lat="43.23133" lon="5.39582">
        <ele>76</ele>
        <time>2017-04-23T12:21:23Z</time>
      </trkpt>
      <trkpt lat="43.23131" lon="5.39584">
        <ele>71</ele>
        <time>2017-04-23T12:21:32Z</time>
      </trkpt>
      <trkpt lat="43.23131" lon="5.39585">
        <ele>59</ele>
        <time>2017-04-23T12:21:56Z</time>
      </trkpt>
      <trkpt lat="43.23135" lon="5.39584">
        <ele>59</ele>
        <time>2017-04-23T12:22:07Z</time>
      </trkpt>
      <trkpt lat="43.23135" lon="5.39584">
        <ele>62</ele>
        <time>2017-04-23T12:22:33Z</time>
      </trkpt>
      <trkpt lat="43.23137" lon="5.39583">
        <ele>68</ele>
        <time>2017-04-23T12:22:52Z</time>
      </trkpt>
      <trkpt lat="43.23143" lon="5.39582">
        <ele>79</ele>
        <time>2017-04-23T12:23:02Z</time>
      </trkpt>
      <trkpt lat="43.23142" lon="5.39582">
        <ele>89</ele>
        <time>2017-04-23T12:23:12Z</time>
      </trkpt>
      <trkpt lat="43.2314" lon="5.39582">
        <ele>90</ele>
        <time>2017-04-23T12:23:24Z</time>
      </trkpt>
      <trkpt lat="43.23137" lon="5.3958">
        <ele>80</ele>
        <time>2017-04-23T12:23:39Z</time>
      </trkpt>
      <trkpt lat="43.23136" lon="5.39582">
        <ele>76</ele>
        <time>2017-04-23T12:23:48Z</time>
      </trkpt>
      <trkpt lat="43.23134" lon="5.39582">
        <ele>71</ele>
        <time>2017-04-23T12:24:08Z</time>
      </trkpt>
      <trkpt lat="43.23133" lon="5.3958">
        <ele>65</ele>
        <time>2017-04-23T12:24:30Z</time>
      </trkpt>
      <trkpt lat="43.23132" lon="5.39582">
        <ele>57</ele>
        <time>2017-04-23T12:24:47Z</time>
      </trkpt>
      <trkpt lat="43.23132" lon="5.39582">
        <ele>57</ele>
        <time>2017-04-23T12:24:48Z</time>
      </trkpt>
    </trkseg>
  </trk>
</gpx>